Time,TemperatureF,DewpointF,PressureIn,WindDirection,WindDirectionDegrees,WindSpeedMPH,WindSpeedGustMPH,Humidity,HourlyPrecipIn,Conditions,Clouds,dailyrainin,SoftwareType,DateUTC
2013-03-12 00:00:00,50.7,49.1,30.01,SSE,163,3.5,3.5,94,0.00,OVC,,0.00,WeatherDisplay:10.37,2013-03-12 04:00:00,
2013-03-12 00:05:00,50.7,49.1,30.01,SE,140,3.5,3.5,94,0.00,OVC,,0.00,WeatherDisplay:10.37,2013-03-12 04:05:00,
2013-03-12 00:10:00,50.7,49.1,30.01,SSE,157,5.8,5.8,94,0.00,OVC,,0.00,WeatherDisplay:10.37,2013-03-12 04:10:00,
2013-03-12 00:15:00,50.5,48.9,30.01,SSE,157,3.6,0.0,94,0.00,OVC,,0.00,WeatherDisplay:10.37,2013-03-12 04:15:00,
2013-03-12 00:16:00,50.5,48.9,30.01,SSE,149,3.5,3.5,94,0.00,OVC,,0.00,WeatherDisplay:10.37,2013-03-12 04:16:00,
2013-03-12 00:20:00,50.4,48.7,29.99,SE,132,3.5,0.0,94,0.00,OVC,,0.00,WeatherDisplay:10.37,2013-03-12 04:20:00,
2013-03-12 00:23:00,50.4,48.7,29.99,SE,140,8.1,8.1,94,0.00,OVC,,0.00,WeatherDisplay:10.37,2013-03-12 04:23:00,
2013-03-12 00:25:00,50.4,48.7,29.99,SE,140,5.8,5.8,94,0.00,OVC,,0.00,WeatherDisplay:10.37,2013-03-12 04:25:00,
2013-03-12 00:28:00,50.4,48.7,29.99,SE,144,6.9,6.9,94,0.00,OVC,,0.00,WeatherDisplay:10.37,2013-03-12 04:28:00,
2013-03-12 00:30:00,50.4,49.0,29.99,SE,139,4.6,4.6,95,0.00,OVC,,0.00,WeatherDisplay:10.37,2013-03-12 04:30:00,
2013-03-12 00:31:00,50.4,49.0,29.99,SSE,151,9.2,9.2,95,0.00,OVC,,0.00,WeatherDisplay:10.37,2013-03-12 04:31:00,
2013-03-12 00:33:00,50.4,49.0,29.99,SSE,164,8.1,8.1,95,0.00,OVC,,0.00,WeatherDisplay:10.37,2013-03-12 04:33:00,
2013-03-12 00:35:00,50.4,49.0,29.99,South,190,6.3,6.3,95,0.00,OVC,,0.00,WeatherDisplay:10.37,2013-03-12 04:35:00,
2013-03-12 00:37:00,50.4,49.0,29.99,SSW,195,5.8,5.8,95,0.00,OVC,,0.00,WeatherDisplay:10.37,2013-03-12 04:37:00,
2013-03-12 00:39:00,50.4,49.0,29.99,SSE,149,8.0,8.0,95,0.00,OVC,,0.00,WeatherDisplay:10.37,2013-03-12 04:39:00,
2013-03-12 00:40:00,50.4,49.0,29.99,SSE,154,8.1,8.1,95,0.00,OVC,,0.00,WeatherDisplay:10.37,2013-03-12 04:40:00,
2013-03-12 00:42:00,50.4,49.0,29.99,South,173,8.1,8.1,95,0.00,OVC,,0.00,WeatherDisplay:10.37,2013-03-12 04:42:00,
2013-03-12 00:44:00,50.4,49.0,29.99,ESE,119,9.2,9.2,95,0.00,OVC,,0.00,WeatherDisplay:10.37,2013-03-12 04:44:00,
2013-03-12 00:45:00,50.4,49.0,29.99,SSE,148,9.2,9.2,95,0.00,OVC,,0.00,WeatherDisplay:10.37,2013-03-12 04:45:00,
2013-03-12 00:47:00,50.4,49.0,29.99,South,170,5.8,5.8,95,0.00,OVC,,0.00,WeatherDisplay:10.37,2013-03-12 04:47:00,
2013-03-12 00:49:00,50.4,49.0,29.96,ESE,117,3.5,3.5,95,0.00,OVC,,0.00,WeatherDisplay:10.37,2013-03-12 04:49:00,
2013-03-12 00:50:00,50.4,49.0,29.96,SSE,160,5.8,5.8,95,0.00,OVC,,0.00,WeatherDisplay:10.37,2013-03-12 04:50:00,
2013-03-12 00:51:00,50.4,49.0,29.96,SSE,160,5.8,5.8,95,0.00,OVC,,0.00,WeatherDisplay:10.37,2013-03-12 04:51:00,
2013-03-12 00:52:00,50.4,49.0,29.96,South,176,5.8,5.8,95,0.00,OVC,,0.00,WeatherDisplay:10.37,2013-03-12 04:52:00,
2013-03-12 00:54:00,50.4,49.0,29.96,SE,130,2.3,3.6,95,0.00,OVC,,0.00,WeatherDisplay:10.37,2013-03-12 04:54:00,
2013-03-12 00:55:00,50.4,49.0,29.96,SSE,167,5.8,5.8,95,0.00,OVC,,0.00,WeatherDisplay:10.37,2013-03-12 04:55:00,
2013-03-12 00:56:00,50.4,49.0,29.96,SSW,201,5.8,5.8,95,0.00,OVC,,0.00,WeatherDisplay:10.37,2013-03-12 04:56:00,
2013-03-12 00:57:00,50.4,49.0,29.96,ESE,111,3.6,3.6,95,0.00,OVC,,0.00,WeatherDisplay:10.37,2013-03-12 04:57:00,
2013-03-12 00:59:00,50.4,49.0,29.96,South,175,3.5,3.5,95,0.00,OVC,,0.00,WeatherDisplay:10.37,2013-03-12 04:59:00,
2013-03-12 01:01:00,50.4,49.0,29.96,SSE,165,5.4,5.4,95,0.00,OVC,,0.00,WeatherDisplay:10.37,2013-03-12 05:01:00,
2013-03-12 01:03:00,50.4,49.0,29.96,SSE,157,8.1,8.1,95,0.00,OVC,,0.00,WeatherDisplay:10.37,2013-03-12 05:03:00,
2013-03-12 01:05:00,50.4,49.0,29.96,South,191,5.8,5.8,95,0.00,OVC,,0.00,WeatherDisplay:10.37,2013-03-12 05:05:00,
2013-03-12 01:06:00,50.5,49.2,29.96,SSE,151,5.8,5.8,95,0.00,OVC,,0.00,WeatherDisplay:10.37,2013-03-12 05:06:00,
2013-03-12 01:08:00,50.4,49.0,29.96,SSE,147,8.1,8.1,95,0.00,OVC,,0.00,WeatherDisplay:10.37,2013-03-12 05:08:00,
2013-03-12 01:10:00,50.4,49.0,29.96,ESE,107,8.1,8.1,95,0.00,OVC,,0.00,WeatherDisplay:10.37,2013-03-12 05:10:00,
2013-03-12 01:12:00,50.4,49.0,29.96,SSE,164,8.1,8.1,95,0.00,FEW,,0.00,WeatherDisplay:10.37,2013-03-12 05:12:00,
2013-03-12 01:13:00,50.4,49.0,29.96,South,190,5.8,5.8,95,0.00,FEW,,0.00,WeatherDisplay:10.37,2013-03-12 05:13:00,
2013-03-12 01:14:00,50.4,49.0,29.96,SE,141,5.8,5.8,95,0.00,FEW,,0.00,WeatherDisplay:10.37,2013-03-12 05:14:00,
2013-03-12 01:15:00,50.4,49.0,29.96,South,191,8.1,8.1,95,0.00,FEW,,0.00,WeatherDisplay:10.37,2013-03-12 05:15:00,
2013-03-12 01:17:00,50.4,49.0,29.96,SSW,208,0.0,0.0,95,0.00,FEW,,0.00,WeatherDisplay:10.37,2013-03-12 05:17:00,
2013-03-12 01:18:00,50.4,49.0,29.96,ESE,103,0.0,0.0,95,0.00,FEW,,0.00,WeatherDisplay:10.37,2013-03-12 05:18:00,
2013-03-12 01:19:00,50.4,49.0,29.96,SSE,157,3.6,0.0,95,0.00,FEW,,0.00,WeatherDisplay:10.37,2013-03-12 05:19:00,
2013-03-12 01:20:00,50.4,49.0,29.96,SSW,205,4.6,4.6,95,0.00,FEW,,0.00,WeatherDisplay:10.37,2013-03-12 05:20:00,
2013-03-12 01:22:00,50.4,49.0,29.96,SW,214,8.1,8.1,95,0.00,FEW,,0.00,WeatherDisplay:10.37,2013-03-12 05:22:00,
2013-03-12 01:23:00,50.5,49.2,29.96,SE,140,5.8,5.8,95,0.00,FEW,,0.00,WeatherDisplay:10.37,2013-03-12 05:23:00,
2013-03-12 01:24:00,50.5,49.2,29.96,SSW,205,4.6,4.6,95,0.00,FEW,,0.00,WeatherDisplay:10.37,2013-03-12 05:24:00,
2013-03-12 01:25:00,50.5,49.2,29.96,SW,227,10.1,10.1,95,0.00,FEW,,0.00,WeatherDisplay:10.37,2013-03-12 05:25:00,
2013-03-12 01:27:00,50.5,49.2,29.96,SSW,206,5.8,5.8,95,0.00,FEW,,0.00,WeatherDisplay:10.37,2013-03-12 05:27:00,
2013-03-12 01:28:00,50.5,49.2,29.96,SSE,167,5.8,5.8,95,0.00,FEW,,0.00,WeatherDisplay:10.37,2013-03-12 05:28:00,
2013-03-12 01:29:00,50.5,49.2,29.96,SSE,166,5.8,5.8,95,0.00,FEW,,0.00,WeatherDisplay:10.37,2013-03-12 05:29:00,
2013-03-12 01:31:00,50.5,49.2,29.96,WSW,237,3.5,3.5,95,0.00,FEW,,0.00,WeatherDisplay:10.37,2013-03-12 05:31:00,
2013-03-12 01:33:00,50.4,49.0,29.96,SSW,194,5.8,5.8,95,0.00,FEW,,0.00,WeatherDisplay:10.37,2013-03-12 05:33:00,
2013-03-12 01:34:00,50.5,49.2,29.96,SW,225,3.5,3.6,95,0.00,FEW,,0.00,WeatherDisplay:10.37,2013-03-12 05:34:00,
2013-03-12 01:36:00,50.5,49.2,29.96,SSW,193,8.3,8.3,95,0.00,FEW,,0.00,WeatherDisplay:10.37,2013-03-12 05:36:00,
2013-03-12 01:38:00,50.5,49.2,29.96,SE,143,5.8,5.8,95,0.00,FEW,,0.00,WeatherDisplay:10.37,2013-03-12 05:38:00,
2013-03-12 01:40:00,50.5,49.2,29.96,SSW,208,5.8,5.8,95,0.00,FEW,,0.00,WeatherDisplay:10.37,2013-03-12 05:40:00,
2013-03-12 01:42:00,50.5,48.9,29.96,South,177,3.5,3.5,94,0.00,FEW,,0.00,WeatherDisplay:10.37,2013-03-12 05:42:00,
2013-03-12 01:43:00,50.5,48.9,29.96,SSE,155,5.8,5.8,94,0.00,FEW,,0.00,WeatherDisplay:10.37,2013-03-12 05:43:00,
2013-03-12 01:45:00,50.5,48.9,29.96,SSE,165,5.8,5.8,94,0.00,FEW,,0.00,WeatherDisplay:10.37,2013-03-12 05:45:00,
2013-03-12 01:47:00,50.7,49.1,29.96,SSW,200,5.8,5.8,94,0.00,FEW,,0.00,WeatherDisplay:10.37,2013-03-12 05:47:00,
2013-03-12 01:48:00,50.7,49.1,29.96,South,179,5.8,5.8,94,0.00,FEW,,0.00,WeatherDisplay:10.37,2013-03-12 05:48:00,
2013-03-12 01:51:00,50.7,49.1,29.96,SSE,153,5.8,5.8,94,0.00,FEW,,0.00,WeatherDisplay:10.37,2013-03-12 05:51:00,
2013-03-12 01:53:00,50.5,48.9,29.96,South,189,5.8,0.0,94,0.00,FEW,,0.00,WeatherDisplay:10.37,2013-03-12 05:53:00,
2013-03-12 01:54:00,50.5,48.9,29.96,SSE,157,5.8,5.8,94,0.00,FEW,,0.00,WeatherDisplay:10.37,2013-03-12 05:54:00,
2013-03-12 01:56:00,50.5,48.9,29.96,SSE,162,4.6,4.9,94,0.00,FEW,,0.00,WeatherDisplay:10.37,2013-03-12 05:56:00,
2013-03-12 01:58:00,50.7,49.1,29.96,South,183,5.8,5.8,94,0.00,FEW,,0.00,WeatherDisplay:10.37,2013-03-12 05:58:00,
2013-03-12 01:59:00,50.7,49.1,29.96,SW,219,5.8,5.8,94,0.00,FEW,,0.00,WeatherDisplay:10.37,2013-03-12 05:59:00,
2013-03-12 02:02:00,50.7,48.8,29.96,SSW,201,9.2,9.2,93,0.00,FEW,,0.00,WeatherDisplay:10.37,2013-03-12 06:02:00,
2013-03-12 02:03:00,50.7,48.8,29.96,SSE,156,9.2,9.2,93,0.00,FEW,,0.00,WeatherDisplay:10.37,2013-03-12 06:03:00,
2013-03-12 02:04:00,50.7,48.8,29.96,South,180,5.8,5.8,93,0.00,FEW,,0.00,WeatherDisplay:10.37,2013-03-12 06:04:00,
2013-03-12 02:07:00,50.9,48.9,29.96,SSE,157,5.8,5.8,93,0.00,FEW,,0.00,WeatherDisplay:10.37,2013-03-12 06:07:00,
2013-03-12 02:08:00,50.9,48.9,29.96,South,170,4.0,4.0,93,0.00,FEW,,0.00,WeatherDisplay:10.37,2013-03-12 06:08:00,
2013-03-12 02:09:00,50.9,48.9,29.96,South,171,5.8,5.8,93,0.00,FEW,,0.00,WeatherDisplay:10.37,2013-03-12 06:09:00,
2013-03-12 02:12:00,50.9,48.7,29.96,SSE,157,6.3,6.3,92,0.00,BKN,,0.00,WeatherDisplay:10.37,2013-03-12 06:12:00,
2013-03-12 02:13:00,50.9,48.7,29.96,SE,136,5.8,5.8,92,0.00,BKN,,0.00,WeatherDisplay:10.37,2013-03-12 06:13:00,
2013-03-12 02:14:00,50.9,48.7,29.96,South,188,8.1,8.1,92,0.00,BKN,,0.00,WeatherDisplay:10.37,2013-03-12 06:14:00,
2013-03-12 02:18:00,50.9,48.7,29.96,South,174,2.3,0.0,92,0.00,BKN,,0.00,WeatherDisplay:10.37,2013-03-12 06:18:00,
2013-03-12 02:19:00,50.9,48.7,29.93,SSW,194,4.9,4.9,92,0.00,BKN,,0.00,WeatherDisplay:10.37,2013-03-12 06:19:00,
2013-03-12 02:23:00,51.1,48.8,29.93,South,171,6.9,6.9,92,0.00,BKN,,0.00,WeatherDisplay:10.37,2013-03-12 06:23:00,
2013-03-12 02:26:00,51.1,48.5,29.93,SSE,158,8.7,0.0,91,0.00,BKN,,0.00,WeatherDisplay:10.37,2013-03-12 06:26:00,
2013-03-12 02:28:00,51.1,48.5,29.93,SSE,147,5.8,5.8,91,0.00,BKN,,0.00,WeatherDisplay:10.37,2013-03-12 06:28:00,
2013-03-12 02:31:00,51.1,48.5,29.93,South,178,9.2,9.2,91,0.00,BKN,,0.00,WeatherDisplay:10.37,2013-03-12 06:31:00,
2013-03-12 02:34:00,51.3,48.7,29.93,South,181,5.8,5.8,91,0.00,BKN,,0.00,WeatherDisplay:10.37,2013-03-12 06:34:00,
2013-03-12 02:36:00,51.3,48.7,29.93,SSE,157,5.8,6.3,91,0.00,BKN,,0.00,WeatherDisplay:10.37,2013-03-12 06:36:00,
2013-03-12 02:37:00,51.3,48.7,29.93,South,187,8.1,8.1,91,0.00,BKN,,0.00,WeatherDisplay:10.37,2013-03-12 06:37:00,
2013-03-12 02:39:00,51.4,48.9,29.93,South,179,10.4,10.4,91,0.00,BKN,,0.00,WeatherDisplay:10.37,2013-03-12 06:39:00,
2013-03-12 02:41:00,51.4,48.9,29.93,SE,145,8.1,8.1,91,0.00,BKN,,0.00,WeatherDisplay:10.37,2013-03-12 06:41:00,
2013-03-12 02:42:00,51.4,48.9,29.93,SSW,193,5.8,6.3,91,0.00,BKN,,0.00,WeatherDisplay:10.37,2013-03-12 06:42:00,
2013-03-12 02:44:00,51.3,48.7,29.93,SW,214,5.8,5.8,91,0.00,BKN,,0.00,WeatherDisplay:10.37,2013-03-12 06:44:00,
2013-03-12 02:47:00,51.3,48.7,29.93,SSW,208,5.8,5.8,91,0.00,BKN,,0.00,WeatherDisplay:10.37,2013-03-12 06:47:00,
2013-03-12 02:49:00,51.3,48.7,29.93,South,174,5.8,5.8,91,0.00,BKN,,0.00,WeatherDisplay:10.37,2013-03-12 06:49:00,
2013-03-12 02:52:00,51.3,48.7,29.93,South,191,6.9,6.9,91,0.00,BKN,,0.00,WeatherDisplay:10.37,2013-03-12 06:52:00,
2013-03-12 02:53:00,51.3,48.7,29.93,SSW,193,9.2,9.2,91,0.00,BKN,,0.00,WeatherDisplay:10.37,2013-03-12 06:53:00,
2013-03-12 02:54:00,51.3,48.7,29.93,South,191,6.9,6.9,91,0.00,BKN,,0.00,WeatherDisplay:10.37,2013-03-12 06:54:00,
2013-03-12 02:55:00,51.3,48.7,29.93,SW,222,8.1,8.1,91,0.00,BKN,,0.00,WeatherDisplay:10.37,2013-03-12 06:55:00,
2013-03-12 02:58:00,51.3,48.7,29.93,SSE,167,10.4,10.4,91,0.00,BKN,,0.00,WeatherDisplay:10.37,2013-03-12 06:58:00,
2013-03-12 02:59:00,51.3,49.0,29.93,South,189,6.3,6.3,92,0.00,BKN,,0.00,WeatherDisplay:10.37,2013-03-12 06:59:00,
2013-03-12 03:00:00,51.3,49.0,29.93,SSE,164,5.8,5.8,92,0.00,BKN,,0.00,WeatherDisplay:10.37,2013-03-12 07:00:00,
2013-03-12 03:03:00,51.1,48.8,29.93,South,184,5.8,5.8,92,0.00,BKN,,0.00,WeatherDisplay:10.37,2013-03-12 07:03:00,
2013-03-12 03:05:00,51.1,49.1,29.93,SSW,211,9.2,9.2,93,0.00,BKN,,0.00,WeatherDisplay:10.37,2013-03-12 07:05:00,
2013-03-12 03:08:00,51.1,49.1,29.93,SSW,200,3.5,3.5,93,0.00,BKN,,0.00,WeatherDisplay:10.37,2013-03-12 07:08:00,
2013-03-12 03:10:00,50.9,49.2,29.93,South,176,8.1,8.1,94,0.00,BKN,,0.00,WeatherDisplay:10.37,2013-03-12 07:10:00,
2013-03-12 03:13:00,50.9,49.2,29.93,SSE,147,3.5,0.0,94,0.00,BKN,,0.00,WeatherDisplay:10.37,2013-03-12 07:13:00,
2013-03-12 03:15:00,50.9,49.5,29.93,South,184,6.9,6.9,95,0.00,BKN,,0.00,WeatherDisplay:10.37,2013-03-12 07:15:00,
2013-03-12 03:18:00,50.7,49.3,29.93,SSW,212,5.8,0.0,95,0.00,BKN,,0.00,WeatherDisplay:10.37,2013-03-12 07:18:00,
2013-03-12 03:20:00,50.7,49.6,29.93,SW,218,3.5,3.5,96,0.00,BKN,,0.00,WeatherDisplay:10.37,2013-03-12 07:20:00,
2013-03-12 03:23:00,50.7,49.6,29.93,SW,219,5.8,5.8,96,0.00,BKN,,0.00,WeatherDisplay:10.37,2013-03-12 07:23:00,
2013-03-12 03:25:00,50.7,49.6,29.93,SW,218,4.9,4.9,96,0.00,BKN,,0.00,WeatherDisplay:10.37,2013-03-12 07:25:00,
2013-03-12 03:26:00,50.7,49.6,29.93,South,180,4.6,4.6,96,0.00,BKN,,0.00,WeatherDisplay:10.37,2013-03-12 07:26:00,
2013-03-12 03:28:00,50.5,49.7,29.93,SSE,154,3.5,3.5,97,0.00,BKN,,0.00,WeatherDisplay:10.37,2013-03-12 07:28:00,
2013-03-12 03:31:00,50.5,49.7,29.93,SW,225,5.8,5.8,97,0.00,BKN,,0.00,WeatherDisplay:10.37,2013-03-12 07:31:00,
2013-03-12 03:33:00,50.5,49.7,29.93,South,179,0.0,0.0,97,0.00,BKN,,0.00,WeatherDisplay:10.37,2013-03-12 07:33:00,
2013-03-12 03:36:00,50.5,49.7,29.90,South,182,3.5,0.0,97,0.00,BKN,,0.00,WeatherDisplay:10.37,2013-03-12 07:36:00,
2013-03-12 03:37:00,50.5,50.5,29.90,SSW,192,3.5,3.5,100,0.04,RA,,0.04,WeatherDisplay:10.37,2013-03-12 07:37:00,
2013-03-12 03:38:00,50.5,50.5,29.90,South,185,3.5,3.5,100,0.04,RA,,0.04,WeatherDisplay:10.37,2013-03-12 07:38:00,
2013-03-12 03:42:00,50.7,50.7,29.90,SSW,203,8.1,8.1,100,0.04,RA,,0.04,WeatherDisplay:10.37,2013-03-12 07:42:00,
2013-03-12 03:44:00,50.7,50.7,29.90,SE,137,8.1,0.0,100,0.04,RA,,0.04,WeatherDisplay:10.37,2013-03-12 07:44:00,
2013-03-12 03:47:00,50.9,50.9,29.90,SSW,195,8.1,8.1,100,0.04,BKN,,0.04,WeatherDisplay:10.37,2013-03-12 07:47:00,
2013-03-12 03:49:00,50.9,50.9,29.90,SSW,208,5.8,5.8,100,0.04,BKN,,0.04,WeatherDisplay:10.37,2013-03-12 07:49:00,
2013-03-12 03:52:00,50.9,50.9,29.93,SW,225,3.5,0.0,100,0.04,BKN,,0.04,WeatherDisplay:10.37,2013-03-12 07:52:00,
2013-03-12 03:54:00,50.9,50.9,29.93,SSW,195,5.8,5.8,100,0.04,BKN,,0.04,WeatherDisplay:10.37,2013-03-12 07:54:00,
2013-03-12 03:57:00,51.1,51.1,29.93,SSW,213,8.1,8.1,100,0.04,BKN,,0.04,WeatherDisplay:10.37,2013-03-12 07:57:00,
2013-03-12 03:58:00,51.1,51.1,29.93,SSW,206,8.1,8.1,100,0.04,BKN,,0.04,WeatherDisplay:10.37,2013-03-12 07:58:00,
2013-03-12 03:59:00,51.1,51.1,29.93,WSW,244,10.5,10.5,100,0.04,BKN,,0.04,WeatherDisplay:10.37,2013-03-12 07:59:00,
2013-03-12 04:00:00,51.1,51.1,29.93,WSW,244,5.8,5.8,100,0.04,BKN,,0.04,WeatherDisplay:10.37,2013-03-12 08:00:00,
2013-03-12 04:03:00,51.3,51.3,29.93,SSW,194,9.2,9.2,100,0.04,BKN,,0.04,WeatherDisplay:10.37,2013-03-12 08:03:00,
2013-03-12 04:04:00,51.3,51.3,29.90,SW,225,5.8,5.8,100,0.04,BKN,,0.04,WeatherDisplay:10.37,2013-03-12 08:04:00,
2013-03-12 04:05:00,51.3,51.3,29.91,SSW,200,2.0,13.0,100,0.00,BKN,,0.04,WeatherDisplay:10.37,2013-03-12 08:05:00,
2013-03-12 04:08:00,51.3,51.3,29.90,SSW,209,8.1,8.1,100,0.04,BKN,,0.04,WeatherDisplay:10.37,2013-03-12 08:08:00,
2013-03-12 04:10:00,51.4,51.4,29.90,South,191,8.1,8.1,100,0.04,BKN,,0.04,WeatherDisplay:10.37,2013-03-12 08:10:00,
2013-03-12 04:13:00,51.4,51.4,29.90,SSE,155,8.1,8.1,100,0.04,-RA,,0.04,WeatherDisplay:10.37,2013-03-12 08:13:00,
2013-03-12 04:14:00,51.4,51.4,29.90,SSW,212,6.9,6.9,100,0.04,-RA,,0.04,WeatherDisplay:10.37,2013-03-12 08:14:00,
2013-03-12 04:15:00,51.4,51.4,29.90,SSW,202,5.8,5.8,100,0.04,-RA,,0.04,WeatherDisplay:10.37,2013-03-12 08:15:00,
2013-03-12 04:18:00,51.4,51.4,29.90,SSE,168,10.4,10.4,100,0.04,-RA,,0.04,WeatherDisplay:10.37,2013-03-12 08:18:00,
2013-03-12 04:19:00,51.4,51.4,29.90,SSE,168,11.5,11.5,100,0.04,-RA,,0.04,WeatherDisplay:10.37,2013-03-12 08:19:00,
2013-03-12 04:20:00,51.4,51.4,29.90,WSW,239,11.5,11.5,100,0.04,-RA,,0.04,WeatherDisplay:10.37,2013-03-12 08:20:00,
2013-03-12 04:24:00,51.6,51.6,29.90,South,179,10.4,10.4,100,0.04,-RA,,0.04,WeatherDisplay:10.37,2013-03-12 08:24:00,
2013-03-12 04:25:00,51.6,51.6,29.90,SW,215,9.2,9.2,100,0.04,-RA,,0.04,WeatherDisplay:10.37,2013-03-12 08:25:00,
2013-03-12 04:26:00,51.6,51.6,29.90,South,189,8.1,8.1,100,0.04,-RA,,0.04,WeatherDisplay:10.37,2013-03-12 08:26:00,
2013-03-12 04:29:00,51.6,51.6,29.90,SE,130,4.6,4.6,100,0.04,-RA,,0.04,WeatherDisplay:10.37,2013-03-12 08:29:00,
2013-03-12 04:30:00,51.6,51.6,29.90,SSE,166,3.5,3.5,100,0.04,-RA,,0.04,WeatherDisplay:10.37,2013-03-12 08:30:00,
2013-03-12 04:32:00,51.4,51.4,29.90,WSW,253,8.1,8.1,100,0.04,-RA,,0.04,WeatherDisplay:10.37,2013-03-12 08:32:00,
2013-03-12 04:34:00,51.4,51.4,29.90,SSW,200,9.2,9.2,100,0.04,-RA,,0.04,WeatherDisplay:10.37,2013-03-12 08:34:00,
2013-03-12 04:36:00,51.6,51.6,29.90,SSW,196,10.9,10.9,100,0.04,-RA,,0.04,WeatherDisplay:10.37,2013-03-12 08:36:00,
2013-03-12 04:37:00,51.6,51.6,29.90,SSE,168,11.5,11.5,100,0.00,-RA,,0.04,WeatherDisplay:10.37,2013-03-12 08:37:00,
2013-03-12 04:39:00,51.6,51.6,29.90,SW,234,5.8,5.8,100,0.00,-RA,,0.04,WeatherDisplay:10.37,2013-03-12 08:39:00,
2013-03-12 04:41:00,51.6,51.6,29.90,South,187,9.2,9.2,100,0.00,-RA,,0.04,WeatherDisplay:10.37,2013-03-12 08:41:00,
2013-03-12 04:43:00,51.4,51.4,29.90,SSW,193,9.2,9.2,100,0.00,-RA,,0.04,WeatherDisplay:10.37,2013-03-12 08:43:00,
2013-03-12 04:44:00,51.4,51.4,29.90,SSW,201,10.9,10.9,100,0.00,-RA,,0.04,WeatherDisplay:10.37,2013-03-12 08:44:00,
2013-03-12 04:47:00,51.6,51.6,29.90,SSW,202,11.5,11.5,100,0.00,-RA,,0.04,WeatherDisplay:10.37,2013-03-12 08:47:00,
2013-03-12 04:48:00,51.6,51.6,29.90,SSW,212,12.7,12.7,100,0.00,-RA,,0.04,WeatherDisplay:10.37,2013-03-12 08:48:00,
2013-03-12 04:49:00,51.6,51.6,29.90,SSW,203,9.2,9.2,100,0.00,-RA,,0.04,WeatherDisplay:10.37,2013-03-12 08:49:00,
2013-03-12 04:52:00,51.6,51.6,29.90,South,178,8.1,8.1,100,0.00,-RA,,0.04,WeatherDisplay:10.37,2013-03-12 08:52:00,
2013-03-12 04:54:00,51.6,51.6,29.90,SSW,212,5.8,5.8,100,0.00,-RA,,0.04,WeatherDisplay:10.37,2013-03-12 08:54:00,
2013-03-12 04:55:00,51.6,51.6,29.90,SW,235,8.3,8.3,100,0.00,-RA,,0.04,WeatherDisplay:10.37,2013-03-12 08:55:00,
2013-03-12 04:57:00,51.6,51.6,29.90,SW,226,8.1,8.1,100,0.04,-RA,,0.08,WeatherDisplay:10.37,2013-03-12 08:57:00,
2013-03-12 04:59:00,51.6,51.6,29.90,South,190,9.2,9.2,100,0.04,-RA,,0.08,WeatherDisplay:10.37,2013-03-12 08:59:00,
2013-03-12 05:00:00,51.6,51.6,29.90,SSW,197,8.1,8.1,100,0.04,-RA,,0.08,WeatherDisplay:10.37,2013-03-12 09:00:00,
2013-03-12 05:02:00,51.6,51.6,29.90,South,187,9.2,9.2,100,0.04,-RA,,0.08,WeatherDisplay:10.37,2013-03-12 09:02:00,
2013-03-12 05:04:00,51.6,51.6,29.90,SW,224,5.8,5.8,100,0.04,-RA,,0.08,WeatherDisplay:10.37,2013-03-12 09:04:00,
2013-03-12 05:05:00,51.6,51.6,29.90,SW,224,11.5,11.5,100,0.04,-RA,,0.08,WeatherDisplay:10.37,2013-03-12 09:05:00,
2013-03-12 05:07:00,51.6,51.6,29.90,SSE,160,8.3,8.3,100,0.04,-RA,,0.08,WeatherDisplay:10.37,2013-03-12 09:07:00,
2013-03-12 05:09:00,51.6,51.6,29.90,SW,231,8.1,8.1,100,0.04,-RA,,0.08,WeatherDisplay:10.37,2013-03-12 09:09:00,
2013-03-12 05:10:00,51.6,51.6,29.90,South,190,6.0,8.0,100,0.00,-RA,,0.08,WeatherDisplay:10.37,2013-03-12 09:10:00,
2013-03-12 05:13:00,51.6,51.6,29.90,South,184,8.1,8.1,100,0.04,-RA,,0.08,WeatherDisplay:10.37,2013-03-12 09:13:00,
2013-03-12 05:15:00,51.6,51.6,29.90,South,191,5.8,5.8,100,0.04,-RA,,0.08,WeatherDisplay:10.37,2013-03-12 09:15:00,
2013-03-12 05:18:00,51.6,51.6,29.90,SSW,194,11.5,11.5,100,0.04,-RA,,0.08,WeatherDisplay:10.37,2013-03-12 09:18:00,
2013-03-12 05:20:00,51.6,51.6,29.87,South,179,4.6,4.6,100,0.04,-RA,,0.08,WeatherDisplay:10.37,2013-03-12 09:20:00,
2013-03-12 05:23:00,51.6,51.6,29.87,South,190,5.8,5.8,100,0.04,-RA,,0.08,WeatherDisplay:10.37,2013-03-12 09:23:00,
2013-03-12 05:25:00,51.6,51.6,29.87,SW,220,5.8,5.8,100,0.04,-RA,,0.08,WeatherDisplay:10.37,2013-03-12 09:25:00,
2013-03-12 05:28:00,51.6,51.6,29.87,SW,224,12.7,12.7,100,0.04,-RA,,0.08,WeatherDisplay:10.37,2013-03-12 09:28:00,
2013-03-12 05:30:00,51.6,51.6,29.87,SSW,194,5.8,5.8,100,0.04,-RA,,0.08,WeatherDisplay:10.37,2013-03-12 09:30:00,
2013-03-12 05:33:00,51.6,51.6,29.87,SSW,203,6.9,6.9,100,0.04,-RA,,0.08,WeatherDisplay:10.37,2013-03-12 09:33:00,
2013-03-12 05:35:00,51.6,51.6,29.87,South,190,8.1,8.1,100,0.04,-RA,,0.08,WeatherDisplay:10.37,2013-03-12 09:35:00,
2013-03-12 05:36:00,51.6,51.6,29.87,SW,228,8.1,8.1,100,0.04,-RA,,0.08,WeatherDisplay:10.37,2013-03-12 09:36:00,
2013-03-12 05:38:00,51.6,51.6,29.87,South,171,4.6,4.6,100,0.04,-RA,,0.08,WeatherDisplay:10.37,2013-03-12 09:38:00,
2013-03-12 05:40:00,51.6,51.6,29.87,WSW,237,5.8,5.8,100,0.04,-RA,,0.08,WeatherDisplay:10.37,2013-03-12 09:40:00,
2013-03-12 05:41:00,51.6,51.6,29.87,SSW,206,5.8,5.8,100,0.04,-RA,,0.08,WeatherDisplay:10.37,2013-03-12 09:41:00,
2013-03-12 05:44:00,51.8,51.8,29.87,South,180,5.8,5.8,100,0.08,-RA,,0.12,WeatherDisplay:10.37,2013-03-12 09:44:00,
2013-03-12 05:45:00,51.8,51.8,29.87,SE,141,6.3,6.3,100,0.08,-RA,,0.12,WeatherDisplay:10.37,2013-03-12 09:45:00,
2013-03-12 05:46:00,51.8,51.8,29.87,SW,216,5.8,5.8,100,0.08,-RA,,0.12,WeatherDisplay:10.37,2013-03-12 09:46:00,
2013-03-12 05:49:00,51.8,51.8,29.87,ESE,120,5.8,0.0,100,0.08,-RA,,0.12,WeatherDisplay:10.37,2013-03-12 09:49:00,
2013-03-12 05:50:00,51.8,51.8,29.87,South,171,5.8,5.8,100,0.08,-RA,,0.12,WeatherDisplay:10.37,2013-03-12 09:50:00,
2013-03-12 05:51:00,51.8,51.8,29.87,SSW,193,3.6,3.6,100,0.08,-RA,,0.12,WeatherDisplay:10.37,2013-03-12 09:51:00,
2013-03-12 05:54:00,51.8,51.8,29.87,South,191,6.3,6.3,100,0.08,-RA,,0.12,WeatherDisplay:10.37,2013-03-12 09:54:00,
2013-03-12 05:55:00,51.8,51.8,29.87,South,185,5.8,0.0,100,0.08,-RA,,0.12,WeatherDisplay:10.37,2013-03-12 09:55:00,
2013-03-12 05:58:00,51.8,51.8,29.87,SW,219,3.5,4.9,100,0.04,-RA,,0.12,WeatherDisplay:10.37,2013-03-12 09:58:00,
2013-03-12 05:59:00,51.8,51.8,29.87,SSE,162,10.4,10.4,100,0.04,-RA,,0.12,WeatherDisplay:10.37,2013-03-12 09:59:00,
2013-03-12 06:00:00,51.8,51.8,29.87,South,176,5.8,5.8,100,0.04,-RA,,0.12,WeatherDisplay:10.37,2013-03-12 10:00:00,
2013-03-12 06:03:00,51.8,51.8,29.87,South,178,8.1,8.1,100,0.04,-RA,,0.16,WeatherDisplay:10.37,2013-03-12 10:03:00,
2013-03-12 06:05:00,51.8,51.8,29.87,SSW,206,8.1,8.1,100,0.08,-RA,,0.16,WeatherDisplay:10.37,2013-03-12 10:05:00,
2013-03-12 06:06:00,51.8,51.8,29.87,SW,225,5.8,5.8,100,0.08,-RA,,0.16,WeatherDisplay:10.37,2013-03-12 10:06:00,
2013-03-12 06:08:00,51.8,51.8,29.87,South,171,8.1,8.1,100,0.08,-RA,,0.16,WeatherDisplay:10.37,2013-03-12 10:08:00,
2013-03-12 06:10:00,51.8,51.8,29.87,South,182,8.7,8.7,100,0.08,-RA,,0.16,WeatherDisplay:10.37,2013-03-12 10:10:00,
2013-03-12 06:11:00,51.8,51.8,29.87,SSW,192,9.2,9.2,100,0.08,-RA,,0.16,WeatherDisplay:10.37,2013-03-12 10:11:00,
2013-03-12 06:13:00,51.8,51.8,29.87,SW,218,8.1,8.1,100,0.08,-RA,,0.16,WeatherDisplay:10.37,2013-03-12 10:13:00,
2013-03-12 06:15:00,51.8,51.8,29.87,South,188,3.0,9.0,100,0.00,-RA,,0.16,WeatherDisplay:10.37,2013-03-12 10:15:00,
2013-03-12 06:17:00,51.8,51.8,29.87,SW,231,5.8,0.0,100,0.08,-RA,,0.16,WeatherDisplay:10.37,2013-03-12 10:17:00,
2013-03-12 06:20:00,51.8,51.8,29.87,South,179,5.0,8.0,100,0.00,-RA,,0.16,WeatherDisplay:10.37,2013-03-12 10:20:00,
2013-03-12 06:22:00,52.0,52.0,29.87,SSW,204,5.8,5.8,100,0.08,-RA,,0.16,WeatherDisplay:10.37,2013-03-12 10:22:00,
2013-03-12 06:25:00,52.0,52.0,29.87,SW,219,5.8,5.8,100,0.08,-RA,,0.16,WeatherDisplay:10.37,2013-03-12 10:25:00,
2013-03-12 06:27:00,52.0,52.0,29.87,SSW,201,4.6,4.6,100,0.08,-RA,,0.16,WeatherDisplay:10.37,2013-03-12 10:27:00,
2013-03-12 06:28:00,52.0,52.0,29.87,SW,227,6.3,6.3,100,0.08,-RA,,0.16,WeatherDisplay:10.37,2013-03-12 10:28:00,
2013-03-12 06:30:00,52.0,52.0,29.87,SSW,195,9.2,9.2,100,0.08,-RA,,0.16,WeatherDisplay:10.37,2013-03-12 10:30:00,
2013-03-12 06:31:00,52.0,52.0,29.87,South,183,9.2,9.2,100,0.08,-RA,,0.16,WeatherDisplay:10.37,2013-03-12 10:31:00,
2013-03-12 06:32:00,52.2,52.2,29.87,SE,143,8.1,8.1,100,0.08,-RA,,0.16,WeatherDisplay:10.37,2013-03-12 10:32:00,
2013-03-12 06:33:00,52.2,52.2,29.87,SW,215,8.1,8.1,100,0.08,-RA,,0.16,WeatherDisplay:10.37,2013-03-12 10:33:00,
2013-03-12 06:35:00,52.2,52.2,29.87,SSW,201,8.1,8.1,100,0.08,-RA,,0.16,WeatherDisplay:10.37,2013-03-12 10:35:00,
2013-03-12 06:36:00,52.2,52.2,29.87,SW,219,7.6,7.6,100,0.08,-RA,,0.16,WeatherDisplay:10.37,2013-03-12 10:36:00,
2013-03-12 06:37:00,52.2,52.2,29.87,South,180,8.1,8.1,100,0.08,-RA,,0.16,WeatherDisplay:10.37,2013-03-12 10:37:00,
2013-03-12 06:38:00,52.2,52.2,29.87,SSW,199,10.4,10.4,100,0.08,-RA,,0.16,WeatherDisplay:10.37,2013-03-12 10:38:00,
2013-03-12 06:40:00,52.3,52.3,29.87,SW,235,8.1,8.1,100,0.08,-RA,,0.16,WeatherDisplay:10.37,2013-03-12 10:40:00,
2013-03-12 06:41:00,52.3,52.3,29.87,WSW,239,6.3,6.3,100,0.08,-RA,,0.16,WeatherDisplay:10.37,2013-03-12 10:41:00,
2013-03-12 06:42:00,52.3,52.3,29.87,SSW,202,9.2,9.2,100,0.08,-RA,,0.24,WeatherDisplay:10.37,2013-03-12 10:42:00,
2013-03-12 06:43:00,52.3,52.3,29.87,WSW,241,12.7,12.7,100,0.16,-RA,,0.24,WeatherDisplay:10.37,2013-03-12 10:43:00,
2013-03-12 06:45:00,52.5,52.5,29.87,SW,217,9.2,9.2,100,0.12,-RA,,0.24,WeatherDisplay:10.37,2013-03-12 10:45:00,
2013-03-12 06:48:00,52.5,52.5,29.87,WSW,243,9.2,9.2,100,0.12,-RA,,0.24,WeatherDisplay:10.37,2013-03-12 10:48:00,
2013-03-12 06:50:00,52.5,52.5,29.87,SW,217,9.2,9.2,100,0.12,-RA,,0.24,WeatherDisplay:10.37,2013-03-12 10:50:00,
2013-03-12 06:53:00,52.5,52.5,29.87,SW,234,11.5,11.5,100,0.12,-RA,,0.24,WeatherDisplay:10.37,2013-03-12 10:53:00,
2013-03-12 06:56:00,52.5,52.5,29.87,SSE,167,9.2,9.2,100,0.12,-RA,,0.24,WeatherDisplay:10.37,2013-03-12 10:56:00,
2013-03-12 06:58:00,52.5,52.5,29.87,SW,229,5.8,5.8,100,0.12,-RA,,0.24,WeatherDisplay:10.37,2013-03-12 10:58:00,
2013-03-12 07:01:00,52.5,52.5,29.87,South,186,11.5,11.5,100,0.12,-RA,,0.24,WeatherDisplay:10.37,2013-03-12 11:01:00,
2013-03-12 07:03:00,52.5,52.5,29.87,SSE,155,9.2,9.2,100,0.12,-RA,,0.24,WeatherDisplay:10.37,2013-03-12 11:03:00,
2013-03-12 07:04:00,52.5,52.5,29.87,South,175,8.1,8.1,100,0.08,-RA,,0.24,WeatherDisplay:10.37,2013-03-12 11:04:00,
2013-03-12 07:06:00,52.5,52.5,29.84,South,182,14.1,14.1,100,0.08,-RA,,0.24,WeatherDisplay:10.37,2013-03-12 11:06:00,
2013-03-12 07:08:00,52.5,52.5,29.84,South,184,8.1,8.1,100,0.08,-RA,,0.24,WeatherDisplay:10.37,2013-03-12 11:08:00,
2013-03-12 07:09:00,52.5,52.5,29.84,SW,216,8.1,8.1,100,0.08,-RA,,0.24,WeatherDisplay:10.37,2013-03-12 11:09:00,
2013-03-12 07:12:00,52.7,52.7,29.84,SW,227,9.2,9.2,100,0.08,-RA,,0.24,WeatherDisplay:10.37,2013-03-12 11:12:00,
2013-03-12 07:13:00,52.7,52.7,29.84,SW,226,9.2,9.2,100,0.08,-RA,,0.24,WeatherDisplay:10.37,2013-03-12 11:13:00,
2013-03-12 07:14:00,52.7,52.7,29.84,WSW,250,9.2,9.2,100,0.08,-RA,,0.24,WeatherDisplay:10.37,2013-03-12 11:14:00,
2013-03-12 07:18:00,52.7,52.7,29.84,SSW,206,8.1,8.1,100,0.08,-RA,,0.24,WeatherDisplay:10.37,2013-03-12 11:18:00,
2013-03-12 07:19:00,52.7,52.7,29.84,SW,215,10.4,10.4,100,0.08,-RA,,0.24,WeatherDisplay:10.37,2013-03-12 11:19:00,
2013-03-12 07:20:00,52.7,52.7,29.84,SW,217,9.2,9.2,100,0.08,-RA,,0.24,WeatherDisplay:10.37,2013-03-12 11:20:00,
2013-03-12 07:23:00,52.7,52.7,29.84,SSW,207,11.5,11.5,100,0.08,-RA,,0.24,WeatherDisplay:10.37,2013-03-12 11:23:00,
2013-03-12 07:24:00,52.7,52.7,29.84,SE,146,12.7,12.7,100,0.08,-RA,,0.24,WeatherDisplay:10.37,2013-03-12 11:24:00,
2013-03-12 07:25:00,52.9,52.9,29.84,SW,229,10.5,10.5,100,0.08,-RA,,0.24,WeatherDisplay:10.37,2013-03-12 11:25:00,
2013-03-12 07:28:00,52.9,52.9,29.84,SSE,161,8.1,8.1,100,0.08,-RA,,0.24,WeatherDisplay:10.37,2013-03-12 11:28:00,
2013-03-12 07:29:00,52.9,52.9,29.84,SW,215,11.5,11.5,100,0.08,-RA,,0.24,WeatherDisplay:10.37,2013-03-12 11:29:00,
2013-03-12 07:30:00,52.9,52.9,29.84,SW,224,12.7,12.7,100,0.08,-RA,,0.24,WeatherDisplay:10.37,2013-03-12 11:30:00,
2013-03-12 07:33:00,52.9,52.9,29.84,SSW,212,15.0,15.0,100,0.08,-RA,,0.24,WeatherDisplay:10.37,2013-03-12 11:33:00,
2013-03-12 07:34:00,53.1,53.1,29.84,SSE,163,11.5,11.5,100,0.08,-RA,,0.24,WeatherDisplay:10.37,2013-03-12 11:34:00,
2013-03-12 07:35:00,52.9,52.9,29.84,SSW,194,8.1,8.1,100,0.08,-RA,,0.24,WeatherDisplay:10.37,2013-03-12 11:35:00,
2013-03-12 07:38:00,52.9,52.9,29.84,NNE,27,12.7,12.7,100,0.08,-RA,,0.24,WeatherDisplay:10.37,2013-03-12 11:38:00,
2013-03-12 07:39:00,52.9,52.9,29.84,SW,230,9.2,9.2,100,0.08,-RA,,0.24,WeatherDisplay:10.37,2013-03-12 11:39:00,
2013-03-12 07:40:00,52.9,52.9,29.84,South,177,12.7,12.7,100,0.08,-RA,,0.24,WeatherDisplay:10.37,2013-03-12 11:40:00,
2013-03-12 07:44:00,52.9,52.9,29.84,SSW,211,15.0,15.0,100,0.00,-RA,,0.24,WeatherDisplay:10.37,2013-03-12 11:44:00,
2013-03-12 07:45:00,52.9,52.9,29.84,SSW,209,12.7,12.7,100,0.00,-RA,,0.24,WeatherDisplay:10.37,2013-03-12 11:45:00,
2013-03-12 07:46:00,52.9,52.9,29.84,SSW,205,12.7,12.7,100,0.00,-RA,,0.24,WeatherDisplay:10.37,2013-03-12 11:46:00,
2013-03-12 07:49:00,52.9,52.9,29.84,SE,146,15.0,15.0,100,0.00,-RA,,0.24,WeatherDisplay:10.37,2013-03-12 11:49:00,
2013-03-12 07:50:00,52.9,52.9,29.84,South,185,15.0,15.0,100,0.00,-RA,,0.24,WeatherDisplay:10.37,2013-03-12 11:50:00,
2013-03-12 07:51:00,52.9,52.9,29.84,SSW,213,11.5,11.5,100,0.00,-RA,,0.24,WeatherDisplay:10.37,2013-03-12 11:51:00,
2013-03-12 07:54:00,52.9,52.9,29.84,SSW,200,10.4,10.4,100,0.00,-RA,,0.24,WeatherDisplay:10.37,2013-03-12 11:54:00,
2013-03-12 07:55:00,52.9,52.9,29.84,SW,219,10.4,10.4,100,0.00,-RA,,0.24,WeatherDisplay:10.37,2013-03-12 11:55:00,
2013-03-12 07:57:00,52.9,52.9,29.84,SSW,195,15.0,15.0,100,0.00,-RA,,0.24,WeatherDisplay:10.37,2013-03-12 11:57:00,
2013-03-12 07:59:00,52.9,52.9,29.84,SW,214,8.1,8.1,100,0.00,-RA,,0.24,WeatherDisplay:10.37,2013-03-12 11:59:00,
2013-03-12 08:00:00,52.9,52.9,29.84,SSW,204,8.1,8.1,100,0.00,-RA,,0.24,WeatherDisplay:10.37,2013-03-12 12:00:00,
2013-03-12 08:03:00,52.9,52.9,29.84,South,191,8.1,8.1,100,0.00,-RA,,0.24,WeatherDisplay:10.37,2013-03-12 12:03:00,
2013-03-12 08:04:00,52.9,52.9,29.84,South,170,15.0,15.0,100,0.00,-RA,,0.24,WeatherDisplay:10.37,2013-03-12 12:04:00,
2013-03-12 08:05:00,52.9,52.9,29.84,South,180,9.2,9.2,100,0.00,-RA,,0.24,WeatherDisplay:10.37,2013-03-12 12:05:00,
2013-03-12 08:09:00,52.9,52.9,29.84,SW,227,12.7,12.7,100,0.00,-RA,,0.24,WeatherDisplay:10.37,2013-03-12 12:09:00,
2013-03-12 08:10:00,52.9,52.9,29.84,West,264,9.2,9.2,100,0.00,-RA,,0.24,WeatherDisplay:10.37,2013-03-12 12:10:00,
2013-03-12 08:14:00,52.9,52.9,29.84,SSW,207,8.1,8.1,100,0.00,-RA,,0.24,WeatherDisplay:10.37,2013-03-12 12:14:00,
2013-03-12 08:15:00,52.9,52.9,29.84,SSW,199,10.1,10.1,100,0.00,-RA,,0.24,WeatherDisplay:10.37,2013-03-12 12:15:00,
2013-03-12 08:19:00,52.9,52.9,29.84,SW,226,8.3,8.3,100,0.04,-RA,,0.28,WeatherDisplay:10.37,2013-03-12 12:19:00,
2013-03-12 08:20:00,52.9,52.9,29.84,SSW,212,13.2,13.2,100,0.04,-RA,,0.28,WeatherDisplay:10.37,2013-03-12 12:20:00,
2013-03-12 08:24:00,53.1,53.1,29.84,SW,220,8.1,8.1,100,0.04,-RA,,0.28,WeatherDisplay:10.37,2013-03-12 12:24:00,
2013-03-12 08:25:00,53.1,53.1,29.84,SW,215,15.0,15.0,100,0.04,-RA,,0.28,WeatherDisplay:10.37,2013-03-12 12:25:00,
2013-03-12 08:29:00,52.9,52.9,29.84,SSW,210,8.0,8.0,100,0.04,-RA,,0.28,WeatherDisplay:10.37,2013-03-12 12:29:00,
2013-03-12 08:30:00,52.9,52.9,29.84,SSW,210,6.9,7.6,100,0.04,-RA,,0.28,WeatherDisplay:10.37,2013-03-12 12:30:00,
2013-03-12 08:34:00,53.1,53.1,29.84,WSW,238,10.4,10.4,100,0.04,-RA,,0.28,WeatherDisplay:10.37,2013-03-12 12:34:00,
2013-03-12 08:35:00,53.1,53.1,29.84,SSW,211,8.0,16.0,100,0.00,-RA,,0.28,WeatherDisplay:10.37,2013-03-12 12:35:00,
2013-03-12 08:40:00,53.1,53.1,29.84,South,182,8.1,8.1,100,0.04,-RA,,0.28,WeatherDisplay:10.37,2013-03-12 12:40:00,
2013-03-12 08:45:00,52.9,52.9,29.84,WSW,249,8.1,8.1,100,0.04,-RA,,0.28,WeatherDisplay:10.37,2013-03-12 12:45:00,
2013-03-12 08:46:00,52.9,52.9,29.84,SSW,205,8.1,8.1,100,0.04,-RA,,0.28,WeatherDisplay:10.37,2013-03-12 12:46:00,
2013-03-12 08:50:00,52.9,52.9,29.84,SW,233,11.5,11.5,100,0.04,-RA,,0.28,WeatherDisplay:10.37,2013-03-12 12:50:00,
2013-03-12 08:51:00,52.9,52.9,29.84,SSW,204,11.5,11.5,100,0.04,-RA,,0.28,WeatherDisplay:10.37,2013-03-12 12:51:00,
2013-03-12 08:55:00,52.9,52.9,29.84,SW,216,8.1,8.1,100,0.04,-RA,,0.28,WeatherDisplay:10.37,2013-03-12 12:55:00,
2013-03-12 08:57:00,52.9,52.9,29.84,SSW,193,11.5,11.5,100,0.04,-RA,,0.28,WeatherDisplay:10.37,2013-03-12 12:57:00,
2013-03-12 09:00:00,52.9,52.9,29.84,South,176,12.7,12.7,100,0.04,-RA,,0.28,WeatherDisplay:10.37,2013-03-12 13:00:00,
2013-03-12 09:01:00,52.9,52.9,29.84,South,185,12.7,12.7,100,0.04,-RA,,0.28,WeatherDisplay:10.37,2013-03-12 13:01:00,
2013-03-12 09:02:00,52.9,52.9,29.84,South,191,8.1,8.1,100,0.04,-RA,,0.28,WeatherDisplay:10.37,2013-03-12 13:02:00,
2013-03-12 09:05:00,52.9,52.9,29.84,SSE,163,8.1,8.1,100,0.04,-RA,,0.28,WeatherDisplay:10.37,2013-03-12 13:05:00,
2013-03-12 09:06:00,52.9,52.9,29.84,East,99,12.7,12.7,100,0.08,-RA,,0.31,WeatherDisplay:10.37,2013-03-12 13:06:00,
2013-03-12 09:07:00,52.9,52.9,29.84,SE,129,12.7,12.7,100,0.08,-RA,,0.31,WeatherDisplay:10.37,2013-03-12 13:07:00,
2013-03-12 09:10:00,52.9,52.9,29.84,SSW,194,9.2,9.2,100,0.08,-RA,,0.31,WeatherDisplay:10.37,2013-03-12 13:10:00,
2013-03-12 09:11:00,52.9,52.9,29.84,SW,223,8.1,8.1,100,0.08,-RA,,0.31,WeatherDisplay:10.37,2013-03-12 13:11:00,
2013-03-12 09:12:00,52.9,52.9,29.84,WSW,257,8.0,8.0,100,0.08,-RA,,0.31,WeatherDisplay:10.37,2013-03-12 13:12:00,
2013-03-12 09:16:00,52.9,52.9,29.84,SSE,152,12.7,12.7,100,0.08,-RA,,0.31,WeatherDisplay:10.37,2013-03-12 13:16:00,
2013-03-12 09:18:00,52.9,52.9,29.84,SW,225,12.7,12.7,100,0.04,-RA,,0.31,WeatherDisplay:10.37,2013-03-12 13:18:00,
2013-03-12 09:21:00,52.9,52.9,29.84,SW,230,11.5,11.5,100,0.04,-RA,,0.31,WeatherDisplay:10.37,2013-03-12 13:21:00,
2013-03-12 09:23:00,52.9,52.9,29.84,SSW,202,11.5,11.5,100,0.04,-RA,,0.31,WeatherDisplay:10.37,2013-03-12 13:23:00,
2013-03-12 09:26:00,53.1,53.1,29.84,SW,217,12.7,12.7,100,0.04,-RA,,0.31,WeatherDisplay:10.37,2013-03-12 13:26:00,
2013-03-12 09:28:00,53.1,53.1,29.84,South,186,13.8,13.8,100,0.04,-RA,,0.31,WeatherDisplay:10.37,2013-03-12 13:28:00,
2013-03-12 09:29:00,53.1,53.1,29.84,South,180,13.8,13.8,100,0.04,-RA,,0.31,WeatherDisplay:10.37,2013-03-12 13:29:00,
2013-03-12 09:32:00,53.1,53.1,29.84,SSE,155,11.5,11.5,100,0.04,-RA,,0.31,WeatherDisplay:10.37,2013-03-12 13:32:00,
2013-03-12 09:33:00,53.1,53.1,29.84,South,183,11.5,11.5,100,0.04,-RA,,0.35,WeatherDisplay:10.37,2013-03-12 13:33:00,
2013-03-12 09:34:00,53.1,53.1,29.84,South,183,9.2,9.2,100,0.08,-RA,,0.35,WeatherDisplay:10.37,2013-03-12 13:34:00,
2013-03-12 09:37:00,53.2,53.2,29.81,South,179,8.1,8.1,100,0.08,-RA,,0.35,WeatherDisplay:10.37,2013-03-12 13:37:00,
2013-03-12 09:39:00,53.2,53.2,29.81,SW,221,10.4,10.4,100,0.08,-RA,,0.35,WeatherDisplay:10.37,2013-03-12 13:39:00,
2013-03-12 09:42:00,53.2,53.2,29.81,South,169,9.2,9.2,100,0.08,-RA,,0.35,WeatherDisplay:10.37,2013-03-12 13:42:00,
2013-03-12 09:43:00,53.2,53.2,29.81,SSE,156,9.2,9.2,100,0.08,-RA,,0.35,WeatherDisplay:10.37,2013-03-12 13:43:00,
2013-03-12 09:44:00,53.2,53.2,29.81,SSW,210,9.2,9.2,100,0.08,-RA,,0.35,WeatherDisplay:10.37,2013-03-12 13:44:00,
2013-03-12 09:47:00,53.2,53.2,29.81,SSW,211,7.6,7.6,100,0.12,-RA,,0.39,WeatherDisplay:10.37,2013-03-12 13:47:00,
2013-03-12 09:48:00,53.2,53.2,29.81,South,171,13.2,13.2,100,0.12,-RA,,0.39,WeatherDisplay:10.37,2013-03-12 13:48:00,
2013-03-12 09:49:00,53.2,53.2,29.81,SSW,193,12.7,12.7,100,0.12,-RA,,0.39,WeatherDisplay:10.37,2013-03-12 13:49:00,
2013-03-12 09:53:00,53.4,53.4,29.81,SSE,156,12.7,12.7,100,0.12,-RA,,0.39,WeatherDisplay:10.37,2013-03-12 13:53:00,
2013-03-12 09:54:00,53.4,53.4,29.81,SSW,213,12.7,12.7,100,0.12,-RA,,0.39,WeatherDisplay:10.37,2013-03-12 13:54:00,
2013-03-12 09:58:00,53.4,53.4,29.81,South,183,10.9,10.9,100,0.12,-RA,,0.39,WeatherDisplay:10.37,2013-03-12 13:58:00,
2013-03-12 10:00:00,53.4,53.4,29.81,South,173,9.2,9.2,100,0.12,-RA,,0.39,WeatherDisplay:10.37,2013-03-12 14:00:00,
2013-03-12 10:03:00,53.4,53.4,29.81,South,171,10.1,10.1,100,0.12,-RA,,0.39,WeatherDisplay:10.37,2013-03-12 14:03:00,
2013-03-12 10:05:00,53.4,53.4,29.81,SSW,194,10.4,10.4,100,0.12,-RA,,0.39,WeatherDisplay:10.37,2013-03-12 14:05:00,
2013-03-12 10:09:00,53.6,53.6,29.81,South,172,10.4,10.4,100,0.12,-RA,,0.43,WeatherDisplay:10.37,2013-03-12 14:09:00,
2013-03-12 10:10:00,53.6,53.6,29.81,South,176,11.5,11.5,100,0.12,-RA,,0.43,WeatherDisplay:10.37,2013-03-12 14:10:00,
2013-03-12 10:14:00,53.8,53.8,29.81,WSW,239,10.1,10.1,100,0.12,-RA,,0.43,WeatherDisplay:10.37,2013-03-12 14:14:00,
2013-03-12 10:15:00,53.8,53.8,29.81,SSW,203,10.4,10.4,100,0.12,-RA,,0.43,WeatherDisplay:10.37,2013-03-12 14:15:00,
2013-03-12 10:19:00,53.8,53.8,29.81,South,177,13.8,13.8,100,0.12,-RA,,0.43,WeatherDisplay:10.37,2013-03-12 14:19:00,
2013-03-12 10:20:00,53.8,53.8,29.81,SW,220,10.4,10.4,100,0.12,-RA,,0.43,WeatherDisplay:10.37,2013-03-12 14:20:00,
2013-03-12 10:21:00,53.8,53.8,29.81,SW,220,12.7,12.7,100,0.12,-RA,,0.43,WeatherDisplay:10.37,2013-03-12 14:21:00,
2013-03-12 10:24:00,53.8,53.8,29.81,South,184,13.8,13.8,100,0.12,-RA,,0.43,WeatherDisplay:10.37,2013-03-12 14:24:00,
2013-03-12 10:25:00,53.8,53.8,29.81,SW,226,18.4,18.4,100,0.12,-RA,,0.43,WeatherDisplay:10.37,2013-03-12 14:25:00,
2013-03-12 10:27:00,53.8,53.8,29.81,SW,229,18.4,18.4,100,0.16,-RA,,0.47,WeatherDisplay:10.37,2013-03-12 14:27:00,
2013-03-12 10:29:00,53.8,53.8,29.81,South,178,13.2,13.2,100,0.16,-RA,,0.47,WeatherDisplay:10.37,2013-03-12 14:29:00,
2013-03-12 10:30:00,53.8,53.8,29.81,South,170,12.7,12.7,100,0.16,-RA,,0.47,WeatherDisplay:10.37,2013-03-12 14:30:00,
2013-03-12 10:31:00,53.8,53.8,29.81,SSE,162,8.1,8.1,100,0.16,-RA,,0.47,WeatherDisplay:10.37,2013-03-12 14:31:00,
2013-03-12 10:32:00,53.8,53.8,29.81,SE,140,9.2,9.2,100,0.16,-RA,,0.47,WeatherDisplay:10.37,2013-03-12 14:32:00,
2013-03-12 10:34:00,53.8,53.8,29.78,South,190,10.4,10.4,100,0.12,-RA,,0.47,WeatherDisplay:10.37,2013-03-12 14:34:00,
2013-03-12 10:36:00,53.8,53.8,29.78,ESE,117,11.4,11.4,100,0.12,-RA,,0.47,WeatherDisplay:10.37,2013-03-12 14:36:00,
2013-03-12 10:37:00,53.6,53.6,29.78,SSE,151,11.5,11.5,100,0.12,-RA,,0.51,WeatherDisplay:10.37,2013-03-12 14:37:00,
2013-03-12 10:39:00,53.6,53.6,29.78,South,185,11.5,11.5,100,0.16,-RA,,0.51,WeatherDisplay:10.37,2013-03-12 14:39:00,
2013-03-12 10:42:00,53.6,53.6,29.78,SE,144,8.1,8.1,100,0.16,-RA,,0.51,WeatherDisplay:10.37,2013-03-12 14:42:00,
2013-03-12 10:44:00,53.6,53.6,29.78,South,190,10.4,10.4,100,0.16,-RA,,0.51,WeatherDisplay:10.37,2013-03-12 14:44:00,
2013-03-12 10:47:00,53.6,53.6,29.78,East,99,10.4,10.4,100,0.12,-RA,,0.51,WeatherDisplay:10.37,2013-03-12 14:47:00,
2013-03-12 10:49:00,53.6,53.6,29.78,SW,216,11.5,11.5,100,0.12,-RA,,0.55,WeatherDisplay:10.37,2013-03-12 14:49:00,
2013-03-12 10:52:00,53.6,53.6,29.78,SE,143,12.7,12.7,100,0.16,-RA,,0.55,WeatherDisplay:10.37,2013-03-12 14:52:00,
2013-03-12 10:53:00,53.6,53.6,29.78,SE,143,12.7,12.7,100,0.16,-RA,,0.55,WeatherDisplay:10.37,2013-03-12 14:53:00,
2013-03-12 10:54:00,53.6,53.6,29.78,SW,224,8.1,8.1,100,0.16,-RA,,0.55,WeatherDisplay:10.37,2013-03-12 14:54:00,
2013-03-12 10:57:00,53.6,53.6,29.78,SW,217,8.1,8.1,100,0.16,-RA,,0.55,WeatherDisplay:10.37,2013-03-12 14:57:00,
2013-03-12 10:58:00,53.6,53.6,29.78,SSW,202,5.8,5.8,100,0.16,-RA,,0.55,WeatherDisplay:10.37,2013-03-12 14:58:00,
2013-03-12 11:00:00,53.6,53.6,29.78,SW,229,8.1,8.1,100,0.16,-RA,,0.55,WeatherDisplay:10.37,2013-03-12 15:00:00,
2013-03-12 11:02:00,53.8,53.8,29.78,SSW,199,8.1,8.1,100,0.20,-RA,,0.59,WeatherDisplay:10.37,2013-03-12 15:02:00,
2013-03-12 11:03:00,53.8,53.8,29.78,SSW,199,8.1,8.1,100,0.20,-RA,,0.59,WeatherDisplay:10.37,2013-03-12 15:03:00,
2013-03-12 11:05:00,53.6,53.6,29.78,SSW,204,8.1,8.1,100,0.24,-RA,,0.63,WeatherDisplay:10.37,2013-03-12 15:05:00,
2013-03-12 11:07:00,53.6,53.6,29.78,SSW,197,5.8,5.8,100,0.20,-RA,,0.63,WeatherDisplay:10.37,2013-03-12 15:07:00,
2013-03-12 11:08:00,53.6,53.6,29.78,WSW,238,5.8,5.8,100,0.20,-RA,,0.63,WeatherDisplay:10.37,2013-03-12 15:08:00,
2013-03-12 11:10:00,53.6,53.6,29.78,SW,222,11.5,11.5,100,0.24,-RA,,0.67,WeatherDisplay:10.37,2013-03-12 15:10:00,
2013-03-12 11:13:00,53.6,53.6,29.78,SSE,147,4.6,4.6,100,0.24,RA,,0.67,WeatherDisplay:10.37,2013-03-12 15:13:00,
2013-03-12 11:14:00,53.6,53.6,29.78,SW,215,9.2,9.2,100,0.24,RA,,0.67,WeatherDisplay:10.37,2013-03-12 15:14:00,
2013-03-12 11:15:00,53.6,53.6,29.78,SW,214,10.1,10.1,100,0.24,RA,,0.67,WeatherDisplay:10.37,2013-03-12 15:15:00,
2013-03-12 11:18:00,53.8,53.8,29.78,SSW,194,9.2,9.2,100,0.24,RA,,0.67,WeatherDisplay:10.37,2013-03-12 15:18:00,
2013-03-12 11:19:00,53.8,53.8,29.78,SW,220,10.4,10.4,100,0.24,RA,,0.67,WeatherDisplay:10.37,2013-03-12 15:19:00,
2013-03-12 11:20:00,53.8,53.8,29.75,SSW,199,11.5,11.5,100,0.24,OVC,,0.67,WeatherDisplay:10.37,2013-03-12 15:20:00,
2013-03-12 11:23:00,53.8,53.8,29.75,SW,224,8.1,8.1,100,0.24,OVC,,0.67,WeatherDisplay:10.37,2013-03-12 15:23:00,
2013-03-12 11:24:00,53.8,53.8,29.75,SW,225,8.1,8.1,100,0.24,OVC,,0.67,WeatherDisplay:10.37,2013-03-12 15:24:00,
2013-03-12 11:25:00,53.8,53.8,29.75,South,189,10.5,10.5,100,0.24,OVC,,0.67,WeatherDisplay:10.37,2013-03-12 15:25:00,
2013-03-12 11:28:00,53.8,53.8,29.75,SSE,161,10.4,10.4,100,0.20,OVC,,0.67,WeatherDisplay:10.37,2013-03-12 15:28:00,
2013-03-12 11:29:00,54.0,54.0,29.75,SSW,207,11.5,11.5,100,0.20,OVC,,0.67,WeatherDisplay:10.37,2013-03-12 15:29:00,
2013-03-12 11:30:00,54.0,54.0,29.75,SW,226,8.1,8.1,100,0.20,OVC,,0.67,WeatherDisplay:10.37,2013-03-12 15:30:00,
2013-03-12 11:33:00,54.0,54.0,29.75,SSE,147,9.2,9.2,100,0.20,OVC,,0.67,WeatherDisplay:10.37,2013-03-12 15:33:00,
2013-03-12 11:34:00,54.0,54.0,29.75,SW,218,9.2,9.2,100,0.20,OVC,,0.67,WeatherDisplay:10.37,2013-03-12 15:34:00,
2013-03-12 11:35:00,54.0,54.0,29.75,SW,218,8.1,9.6,100,0.20,OVC,,0.71,WeatherDisplay:10.37,2013-03-12 15:35:00,
2013-03-12 11:38:00,54.1,54.1,29.75,SSW,194,10.4,10.4,100,0.20,RA,,0.71,WeatherDisplay:10.37,2013-03-12 15:38:00,
2013-03-12 11:39:00,54.1,54.1,29.75,SW,222,8.0,8.0,100,0.20,RA,,0.71,WeatherDisplay:10.37,2013-03-12 15:39:00,
2013-03-12 11:40:00,54.1,54.1,29.75,WSW,238,8.1,8.1,100,0.20,RA,,0.71,WeatherDisplay:10.37,2013-03-12 15:40:00,
2013-03-12 11:43:00,54.1,54.1,29.75,SSW,204,12.7,12.7,100,0.20,RA,,0.71,WeatherDisplay:10.37,2013-03-12 15:43:00,
2013-03-12 11:45:00,54.3,54.3,29.75,South,190,10.1,10.1,100,0.20,RA,,0.71,WeatherDisplay:10.37,2013-03-12 15:45:00,
2013-03-12 11:48:00,54.3,54.3,29.75,South,184,8.1,8.1,100,0.20,OVC,,0.71,WeatherDisplay:10.37,2013-03-12 15:48:00,
2013-03-12 11:50:00,54.3,54.3,29.75,South,186,8.1,8.1,100,0.16,OVC,,0.71,WeatherDisplay:10.37,2013-03-12 15:50:00,
2013-03-12 11:53:00,54.3,54.3,29.75,SW,216,10.1,10.1,100,0.16,OVC,,0.71,WeatherDisplay:10.37,2013-03-12 15:53:00,
2013-03-12 11:54:00,54.3,54.3,29.75,SW,216,9.2,9.2,100,0.16,OVC,,0.71,WeatherDisplay:10.37,2013-03-12 15:54:00,
2013-03-12 11:55:00,54.5,54.5,29.75,SW,218,10.4,10.4,100,0.16,OVC,,0.71,WeatherDisplay:10.37,2013-03-12 15:55:00,
2013-03-12 11:58:00,54.5,54.5,29.75,SW,222,8.1,8.1,100,0.16,OVC,,0.71,WeatherDisplay:10.37,2013-03-12 15:58:00,
2013-03-12 11:59:00,54.5,54.5,29.75,SSW,200,5.8,5.8,100,0.20,RA,,0.75,WeatherDisplay:10.37,2013-03-12 15:59:00,
2013-03-12 12:00:00,54.5,54.5,29.75,South,182,7.6,7.6,100,0.20,RA,,0.75,WeatherDisplay:10.37,2013-03-12 16:00:00,
2013-03-12 12:02:00,54.5,54.5,29.75,SSE,156,17.3,17.3,100,0.16,RA,,0.75,WeatherDisplay:10.37,2013-03-12 16:02:00,
2013-03-12 12:03:00,54.7,54.7,29.75,SSW,195,17.3,17.3,100,0.16,RA,,0.75,WeatherDisplay:10.37,2013-03-12 16:03:00,
2013-03-12 12:04:00,54.7,54.7,29.75,South,187,12.7,12.7,100,0.16,RA,,0.75,WeatherDisplay:10.37,2013-03-12 16:04:00,
2013-03-12 12:05:00,54.7,54.7,29.75,SW,218,9.2,9.2,100,0.12,RA,,0.75,WeatherDisplay:10.37,2013-03-12 16:05:00,
2013-03-12 12:07:00,54.7,54.7,29.75,SSW,205,8.3,8.3,100,0.12,RA,,0.75,WeatherDisplay:10.37,2013-03-12 16:07:00,
2013-03-12 12:09:00,54.7,54.7,29.75,South,180,16.1,16.1,100,0.12,OVC,,0.75,WeatherDisplay:10.37,2013-03-12 16:09:00,
2013-03-12 12:10:00,54.9,54.9,29.75,SW,229,16.1,16.1,100,0.08,OVC,,0.75,WeatherDisplay:10.37,2013-03-12 16:10:00,
2013-03-12 12:13:00,54.9,54.9,29.75,West,267,12.7,12.7,100,0.08,OVC,,0.75,WeatherDisplay:10.37,2013-03-12 16:13:00,
2013-03-12 12:14:00,54.9,54.9,29.75,South,175,10.4,10.4,100,0.08,OVC,,0.75,WeatherDisplay:10.37,2013-03-12 16:14:00,
2013-03-12 12:15:00,55.0,55.0,29.75,SE,126,12.7,12.7,100,0.08,OVC,,0.75,WeatherDisplay:10.37,2013-03-12 16:15:00,
2013-03-12 12:16:00,55.0,55.0,29.75,South,178,12.7,12.7,100,0.08,OVC,,0.75,WeatherDisplay:10.37,2013-03-12 16:16:00,
2013-03-12 12:18:00,55.0,55.0,29.75,South,179,23.0,23.0,100,0.08,OVC,,0.75,WeatherDisplay:10.37,2013-03-12 16:18:00,
2013-03-12 12:19:00,55.0,55.0,29.72,SW,224,17.3,17.3,100,0.08,OVC,,0.75,WeatherDisplay:10.37,2013-03-12 16:19:00,
2013-03-12 12:20:00,55.2,55.2,29.72,South,182,13.2,13.2,100,0.08,OVC,,0.75,WeatherDisplay:10.37,2013-03-12 16:20:00,
2013-03-12 12:21:00,55.2,55.2,29.72,SW,228,16.1,16.1,100,0.08,OVC,,0.75,WeatherDisplay:10.37,2013-03-12 16:21:00,
2013-03-12 12:23:00,55.2,55.2,29.72,South,187,13.2,13.2,100,0.08,OVC,,0.75,WeatherDisplay:10.37,2013-03-12 16:23:00,
2013-03-12 12:24:00,55.2,55.2,29.72,SW,219,12.7,12.7,100,0.08,OVC,,0.75,WeatherDisplay:10.37,2013-03-12 16:24:00,
2013-03-12 12:26:00,55.4,55.4,29.72,SW,232,8.1,8.1,100,0.08,OVC,,0.75,WeatherDisplay:10.37,2013-03-12 16:26:00,
2013-03-12 12:28:00,55.4,55.4,29.72,SW,231,12.7,12.7,100,0.08,OVC,,0.75,WeatherDisplay:10.37,2013-03-12 16:28:00,
2013-03-12 12:29:00,55.4,55.4,29.72,SSW,212,12.7,12.7,100,0.08,OVC,,0.75,WeatherDisplay:10.37,2013-03-12 16:29:00,
2013-03-12 12:32:00,55.4,55.4,29.72,South,188,12.7,12.7,100,0.12,RA,,0.79,WeatherDisplay:10.37,2013-03-12 16:32:00,
2013-03-12 12:33:00,55.4,55.4,29.72,SW,214,10.4,10.4,100,0.12,RA,,0.79,WeatherDisplay:10.37,2013-03-12 16:33:00,
2013-03-12 12:34:00,55.4,55.4,29.72,WSW,240,15.0,15.0,100,0.12,RA,,0.79,WeatherDisplay:10.37,2013-03-12 16:34:00,
2013-03-12 12:37:00,55.6,55.6,29.72,South,173,12.7,12.7,100,0.08,RA,,0.79,WeatherDisplay:10.37,2013-03-12 16:37:00,
2013-03-12 12:38:00,55.6,55.6,29.72,SSW,198,10.4,10.4,100,0.08,RA,,0.79,WeatherDisplay:10.37,2013-03-12 16:38:00,
2013-03-12 12:39:00,55.4,55.4,29.72,WSW,238,8.1,8.1,100,0.08,RA,,0.79,WeatherDisplay:10.37,2013-03-12 16:39:00,
2013-03-12 12:42:00,55.6,55.6,29.72,South,181,13.8,13.8,100,0.08,OVC,,0.79,WeatherDisplay:10.37,2013-03-12 16:42:00,
2013-03-12 12:43:00,55.6,55.6,29.72,SSE,153,12.7,12.7,100,0.08,OVC,,0.79,WeatherDisplay:10.37,2013-03-12 16:43:00,
2013-03-12 12:44:00,55.6,55.6,29.72,SW,227,12.7,12.7,100,0.08,OVC,,0.79,WeatherDisplay:10.37,2013-03-12 16:44:00,
2013-03-12 12:48:00,55.6,55.6,29.72,SW,218,12.7,12.7,100,0.08,OVC,,0.79,WeatherDisplay:10.37,2013-03-12 16:48:00,
2013-03-12 12:49:00,55.6,55.6,29.72,South,177,10.4,10.4,100,0.08,OVC,,0.79,WeatherDisplay:10.37,2013-03-12 16:49:00,
2013-03-12 12:53:00,55.6,55.6,29.69,SSW,201,9.2,9.2,100,0.08,OVC,,0.79,WeatherDisplay:10.37,2013-03-12 16:53:00,
2013-03-12 12:54:00,55.6,55.6,29.69,SSW,208,10.4,10.4,100,0.08,OVC,,0.79,WeatherDisplay:10.37,2013-03-12 16:54:00,
2013-03-12 12:58:00,55.8,55.8,29.69,SW,222,10.9,10.9,100,0.08,OVC,,0.79,WeatherDisplay:10.37,2013-03-12 16:58:00,
2013-03-12 12:59:00,55.8,55.8,29.69,SSE,167,18.8,18.8,100,0.04,OVC,,0.79,WeatherDisplay:10.37,2013-03-12 16:59:00,
2013-03-12 13:03:00,55.8,55.8,29.69,South,181,19.6,19.6,100,0.04,OVC,,0.79,WeatherDisplay:10.37,2013-03-12 17:03:00,
2013-03-12 13:04:00,55.8,55.8,29.69,WSW,252,15.0,15.0,100,0.04,OVC,,0.79,WeatherDisplay:10.37,2013-03-12 17:04:00,
2013-03-12 13:08:00,55.9,55.9,29.69,SSE,164,18.4,18.4,100,0.04,OVC,,0.79,WeatherDisplay:10.37,2013-03-12 17:08:00,
2013-03-12 13:09:00,55.9,55.9,29.69,SSE,164,18.4,18.4,100,0.04,OVC,,0.79,WeatherDisplay:10.37,2013-03-12 17:09:00,
2013-03-12 13:14:00,55.9,55.9,29.69,SSW,210,13.2,13.2,100,0.04,-RA,,0.79,WeatherDisplay:10.37,2013-03-12 17:14:00,
2013-03-12 13:19:00,55.9,55.9,29.69,SSW,201,24.2,24.2,100,0.08,-RA,,0.83,WeatherDisplay:10.37,2013-03-12 17:19:00,
2013-03-12 13:20:00,55.9,55.9,29.69,WSW,241,24.2,24.2,100,0.08,-RA,,0.83,WeatherDisplay:10.37,2013-03-12 17:20:00,
2013-03-12 13:24:00,55.9,55.9,29.69,SW,214,15.0,15.0,100,0.08,-RA,,0.83,WeatherDisplay:10.37,2013-03-12 17:24:00,
2013-03-12 13:25:00,55.9,55.9,29.69,SW,230,9.2,9.2,100,0.08,-RA,,0.83,WeatherDisplay:10.37,2013-03-12 17:25:00,
2013-03-12 13:29:00,55.8,55.8,29.69,SSW,204,15.0,15.0,100,0.12,-RA,,0.87,WeatherDisplay:10.37,2013-03-12 17:29:00,
2013-03-12 13:30:00,55.8,55.8,29.69,WSW,237,15.0,15.0,100,0.12,-RA,,0.87,WeatherDisplay:10.37,2013-03-12 17:30:00,
2013-03-12 13:34:00,55.6,55.6,29.69,WSW,240,13.8,13.8,100,0.12,-RA,,0.91,WeatherDisplay:10.37,2013-03-12 17:34:00,
2013-03-12 13:35:00,55.6,55.6,29.69,SW,230,12.7,12.7,100,0.12,-RA,,0.91,WeatherDisplay:10.37,2013-03-12 17:35:00,
2013-03-12 13:39:00,55.4,55.4,29.69,SW,227,8.1,8.1,100,0.16,-RA,,0.94,WeatherDisplay:10.37,2013-03-12 17:39:00,
2013-03-12 13:40:00,55.4,55.4,29.69,SW,217,8.1,8.1,100,0.16,-RA,,0.94,WeatherDisplay:10.37,2013-03-12 17:40:00,
2013-03-12 13:45:00,55.4,55.4,29.69,WSW,247,10.4,10.4,100,0.24,-RA,,1.06,WeatherDisplay:10.37,2013-03-12 17:45:00,
2013-03-12 13:50:00,55.4,55.4,29.69,WSW,243,8.1,8.1,100,0.35,-RA,,1.18,WeatherDisplay:10.37,2013-03-12 17:50:00,
2013-03-12 13:55:00,55.2,55.2,29.69,SSW,194,3.5,3.5,100,0.39,-RA,,1.18,WeatherDisplay:10.37,2013-03-12 17:55:00,
2013-03-12 14:00:00,55.2,55.2,29.69,WNW,283,5.8,5.8,100,0.43,-RA,,1.22,WeatherDisplay:10.37,2013-03-12 18:00:00,
2013-03-12 14:05:00,55.4,55.4,29.69,WNW,283,3.5,3.5,100,0.43,-RA,,1.22,WeatherDisplay:10.37,2013-03-12 18:05:00,
2013-03-12 14:10:00,55.6,55.6,29.69,WNW,284,0.0,0.0,100,0.43,-RA,,1.22,WeatherDisplay:10.37,2013-03-12 18:10:00,
2013-03-12 14:11:00,55.6,55.6,29.69,WNW,283,0.0,0.0,100,0.47,-RA,,1.26,WeatherDisplay:10.37,2013-03-12 18:11:00,
2013-03-12 14:15:00,55.6,55.6,29.69,West,266,8.1,8.1,100,0.47,RA,,1.26,WeatherDisplay:10.37,2013-03-12 18:15:00,
2013-03-12 14:16:00,55.6,55.6,29.69,West,279,9.2,9.2,100,0.47,RA,,1.26,WeatherDisplay:10.37,2013-03-12 18:16:00,
2013-03-12 14:20:00,55.6,55.6,29.69,SW,234,4.6,4.6,100,0.43,RA,,1.26,WeatherDisplay:10.37,2013-03-12 18:20:00,
2013-03-12 14:21:00,55.6,55.6,29.69,SW,231,3.5,3.5,100,0.43,OVC,,1.26,WeatherDisplay:10.37,2013-03-12 18:21:00,
2013-03-12 14:25:00,55.8,55.8,29.69,WSW,250,4.6,4.6,100,0.43,OVC,,1.26,WeatherDisplay:10.37,2013-03-12 18:25:00,
2013-03-12 14:26:00,55.8,55.8,29.69,NNE,17,4.6,4.6,100,0.43,OVC,,1.26,WeatherDisplay:10.37,2013-03-12 18:26:00,
2013-03-12 14:27:00,55.6,55.6,29.69,SSW,208,5.8,5.8,100,0.39,OVC,,1.26,WeatherDisplay:10.37,2013-03-12 18:27:00,
2013-03-12 14:31:00,55.6,55.6,29.69,WSW,257,6.9,6.9,100,0.39,OVC,,1.26,WeatherDisplay:10.37,2013-03-12 18:31:00,
2013-03-12 14:32:00,55.6,55.6,29.69,SW,233,0.0,0.0,100,0.35,OVC,,1.26,WeatherDisplay:10.37,2013-03-12 18:32:00,
2013-03-12 14:36:00,55.8,55.8,29.69,SW,233,5.8,5.8,100,0.31,OVC,,1.26,WeatherDisplay:10.37,2013-03-12 18:36:00,
2013-03-12 14:37:00,55.8,55.8,29.69,SW,235,5.8,5.8,100,0.31,OVC,,1.26,WeatherDisplay:10.37,2013-03-12 18:37:00,
2013-03-12 14:38:00,55.9,55.9,29.69,SW,219,3.1,0.0,100,0.31,OVC,,1.26,WeatherDisplay:10.37,2013-03-12 18:38:00,
2013-03-12 14:42:00,56.1,56.1,29.69,WSW,258,3.5,3.5,100,0.31,OVC,,1.26,WeatherDisplay:10.37,2013-03-12 18:42:00,
2013-03-12 14:43:00,56.3,56.3,29.69,SW,236,0.0,0.0,100,0.24,OVC,,1.26,WeatherDisplay:10.37,2013-03-12 18:43:00,
2013-03-12 14:47:00,56.1,56.1,29.69,WSW,248,3.5,3.5,100,0.12,OVC,,1.26,WeatherDisplay:10.37,2013-03-12 18:47:00,
2013-03-12 14:48:00,56.1,56.1,29.69,WSW,248,3.5,3.5,100,0.12,OVC,,1.26,WeatherDisplay:10.37,2013-03-12 18:48:00,
2013-03-12 14:52:00,56.1,56.1,29.66,WSW,245,3.5,3.6,100,0.08,OVC,,1.26,WeatherDisplay:10.37,2013-03-12 18:52:00,
2013-03-12 14:53:00,56.3,56.3,29.66,WSW,246,3.5,3.5,100,0.08,OVC,,1.26,WeatherDisplay:10.37,2013-03-12 18:53:00,
2013-03-12 14:57:00,55.9,55.9,29.66,WNW,299,6.9,6.9,100,0.08,OVC,,1.26,WeatherDisplay:10.37,2013-03-12 18:57:00,
2013-03-12 14:58:00,55.9,55.9,29.66,NNW,330,5.8,5.8,100,0.04,OVC,,1.26,WeatherDisplay:10.37,2013-03-12 18:58:00,
2013-03-12 14:59:00,55.9,55.9,29.66,NNW,330,5.8,5.8,100,0.04,OVC,,1.26,WeatherDisplay:10.37,2013-03-12 18:59:00,
2013-03-12 15:02:00,55.6,55.6,29.66,West,269,3.5,3.5,100,0.04,OVC,,1.26,WeatherDisplay:10.37,2013-03-12 19:02:00,
2013-03-12 15:03:00,55.6,55.6,29.66,WNW,303,0.0,0.0,100,0.04,OVC,,1.30,WeatherDisplay:10.37,2013-03-12 19:03:00,
2013-03-12 15:04:00,55.6,55.6,29.66,WNW,303,0.0,0.0,100,0.08,RA,,1.30,WeatherDisplay:10.37,2013-03-12 19:04:00,
2013-03-12 15:08:00,55.6,55.6,29.66,NW,307,0.0,0.0,100,0.08,RA,,1.30,WeatherDisplay:10.37,2013-03-12 19:08:00,
2013-03-12 15:09:00,55.6,55.6,29.66,NW,307,0.0,0.0,100,0.08,RA,,1.30,WeatherDisplay:10.37,2013-03-12 19:09:00,
2013-03-12 15:13:00,55.6,55.6,29.66,SW,229,0.0,0.0,100,0.04,-RA,,1.30,WeatherDisplay:10.37,2013-03-12 19:13:00,
2013-03-12 15:14:00,55.6,55.6,29.66,SW,232,0.0,0.0,100,0.04,-RA,,1.30,WeatherDisplay:10.37,2013-03-12 19:14:00,
2013-03-12 15:18:00,55.9,55.9,29.66,WSW,241,0.0,0.0,100,0.04,-RA,,1.30,WeatherDisplay:10.37,2013-03-12 19:18:00,
2013-03-12 15:19:00,55.9,55.9,29.66,WSW,249,2.3,0.0,100,0.04,-RA,,1.30,WeatherDisplay:10.37,2013-03-12 19:19:00,
2013-03-12 15:20:00,55.9,55.9,29.66,WSW,248,2.3,0.0,100,0.04,-RA,,1.30,WeatherDisplay:10.37,2013-03-12 19:20:00,
2013-03-12 15:23:00,55.9,55.9,29.66,NW,306,0.0,0.0,100,0.04,-RA,,1.30,WeatherDisplay:10.37,2013-03-12 19:23:00,
2013-03-12 15:24:00,55.9,55.9,29.66,NW,307,0.0,0.0,100,0.04,-RA,,1.30,WeatherDisplay:10.37,2013-03-12 19:24:00,
2013-03-12 15:25:00,55.9,55.9,29.66,NW,305,0.0,0.0,100,0.04,-RA,,1.30,WeatherDisplay:10.37,2013-03-12 19:25:00,
2013-03-12 15:28:00,56.1,56.1,29.66,WSW,252,3.5,0.0,100,0.04,-RA,,1.30,WeatherDisplay:10.37,2013-03-12 19:28:00,
2013-03-12 15:29:00,56.1,56.1,29.66,SW,225,3.5,0.0,100,0.04,-RA,,1.30,WeatherDisplay:10.37,2013-03-12 19:29:00,
2013-03-12 15:30:00,56.3,56.3,29.66,WSW,248,3.5,4.0,100,0.04,-RA,,1.30,WeatherDisplay:10.37,2013-03-12 19:30:00,
2013-03-12 15:33:00,56.3,56.3,29.66,West,273,6.9,6.9,100,0.04,-RA,,1.30,WeatherDisplay:10.37,2013-03-12 19:33:00,
2013-03-12 15:34:00,56.3,56.3,29.66,West,273,3.5,3.5,100,0.04,-RA,,1.30,WeatherDisplay:10.37,2013-03-12 19:34:00,
2013-03-12 15:35:00,56.3,56.3,29.66,West,273,0.0,0.0,100,0.04,-RA,,1.30,WeatherDisplay:10.37,2013-03-12 19:35:00,
2013-03-12 15:38:00,56.3,56.3,29.66,SW,225,0.0,0.0,100,0.04,-RA,,1.30,WeatherDisplay:10.37,2013-03-12 19:38:00,
2013-03-12 15:39:00,56.3,56.3,29.66,WSW,241,0.0,0.0,100,0.04,-RA,,1.30,WeatherDisplay:10.37,2013-03-12 19:39:00,
2013-03-12 15:40:00,56.3,56.3,29.66,NNW,341,3.6,0.0,100,0.04,-RA,,1.30,WeatherDisplay:10.37,2013-03-12 19:40:00,
2013-03-12 15:44:00,55.6,55.6,29.66,North,0,8.1,8.1,100,0.04,-RA,,1.30,WeatherDisplay:10.37,2013-03-12 19:44:00,
2013-03-12 15:45:00,55.2,55.2,29.66,North,0,10.4,10.4,100,0.04,-RA,,1.30,WeatherDisplay:10.37,2013-03-12 19:45:00,
2013-03-12 15:49:00,54.1,54.1,29.66,NW,315,9.2,9.2,100,0.04,-RA,,1.30,WeatherDisplay:10.37,2013-03-12 19:49:00,
2013-03-12 15:50:00,54.0,54.0,29.69,West,276,8.1,8.1,100,0.04,-RA,,1.30,WeatherDisplay:10.37,2013-03-12 19:50:00,
2013-03-12 15:54:00,54.1,54.1,29.69,NW,318,5.8,5.8,100,0.04,-RA,,1.30,WeatherDisplay:10.37,2013-03-12 19:54:00,
2013-03-12 15:55:00,54.1,54.1,29.69,NNW,332,8.1,8.1,100,0.04,-RA,,1.30,WeatherDisplay:10.37,2013-03-12 19:55:00,
2013-03-12 15:59:00,54.3,54.3,29.69,NNW,330,9.2,9.2,100,0.04,-RA,,1.30,WeatherDisplay:10.37,2013-03-12 19:59:00,
2013-03-12 16:00:00,54.3,54.3,29.69,NNE,21,8.3,8.3,100,0.04,-RA,,1.30,WeatherDisplay:10.37,2013-03-12 20:00:00,
2013-03-12 16:04:00,54.3,54.3,29.69,North,353,9.2,9.2,100,0.00,-RA,,1.30,WeatherDisplay:10.37,2013-03-12 20:04:00,
2013-03-12 16:05:00,54.3,54.3,29.69,NW,324,5.8,5.8,100,0.00,-RA,,1.30,WeatherDisplay:10.37,2013-03-12 20:05:00,
2013-03-12 16:09:00,54.5,54.5,29.69,North,0,8.1,8.1,100,0.00,-RA,,1.30,WeatherDisplay:10.37,2013-03-12 20:09:00,
2013-03-12 16:10:00,54.3,54.3,29.69,WNW,300,8.1,8.1,100,0.00,-RA,,1.30,WeatherDisplay:10.37,2013-03-12 20:10:00,
2013-03-12 16:14:00,54.1,54.1,29.69,NNW,335,5.8,5.8,100,0.00,OVC,,1.30,WeatherDisplay:10.37,2013-03-12 20:14:00,
2013-03-12 16:15:00,54.1,54.1,29.69,NNW,333,9.2,9.2,100,0.00,OVC,,1.30,WeatherDisplay:10.37,2013-03-12 20:15:00,
2013-03-12 16:19:00,53.8,53.8,29.69,WNW,283,5.8,5.8,100,0.00,OVC,,1.30,WeatherDisplay:10.37,2013-03-12 20:19:00,
2013-03-12 16:20:00,53.8,53.8,29.69,WNW,303,6.3,6.3,100,0.00,OVC,,1.30,WeatherDisplay:10.37,2013-03-12 20:20:00,
2013-03-12 16:21:00,54.0,54.0,29.69,NW,326,5.8,5.8,100,0.00,OVC,,1.30,WeatherDisplay:10.37,2013-03-12 20:21:00,
2013-03-12 16:25:00,53.6,53.6,29.69,NNW,327,9.2,9.2,100,0.00,OVC,,1.30,WeatherDisplay:10.37,2013-03-12 20:25:00,
2013-03-12 16:26:00,53.6,53.6,29.69,WNW,289,9.2,9.2,100,0.00,OVC,,1.30,WeatherDisplay:10.37,2013-03-12 20:26:00,
2013-03-12 16:30:00,53.5,53.5,29.69,NW,318,7.0,12.0,100,0.00,OVC,,1.30,WeatherDisplay:10.37,2013-03-12 20:30:00,
2013-03-12 16:32:00,53.4,53.4,29.69,NW,313,10.4,10.4,100,0.00,OVC,,1.30,WeatherDisplay:10.37,2013-03-12 20:32:00,
2013-03-12 16:35:00,53.4,53.4,29.69,WNW,283,8.1,8.1,100,0.00,OVC,,1.30,WeatherDisplay:10.37,2013-03-12 20:35:00,
2013-03-12 16:38:00,53.2,53.2,29.69,North,357,10.1,10.1,100,0.00,OVC,,1.30,WeatherDisplay:10.37,2013-03-12 20:38:00,
2013-03-12 16:40:00,53.1,53.1,29.69,NNW,333,10.4,10.4,100,0.00,OVC,,1.30,WeatherDisplay:10.37,2013-03-12 20:40:00,
2013-03-12 16:43:00,52.9,52.9,29.69,WNW,303,8.1,8.1,100,0.00,OVC,,1.30,WeatherDisplay:10.37,2013-03-12 20:43:00,
2013-03-12 16:45:00,52.9,52.9,29.69,North,353,8.1,8.1,100,0.00,OVC,,1.30,WeatherDisplay:10.37,2013-03-12 20:45:00,
2013-03-12 16:48:00,52.7,52.7,29.69,WNW,283,9.2,9.2,100,0.00,OVC,,1.30,WeatherDisplay:10.37,2013-03-12 20:48:00,
2013-03-12 16:50:00,52.5,52.5,29.69,WNW,301,11.5,11.5,100,0.00,OVC,,1.30,WeatherDisplay:10.37,2013-03-12 20:50:00,
2013-03-12 16:54:00,52.3,52.3,29.69,NNW,330,10.4,10.4,100,0.00,OVC,,1.30,WeatherDisplay:10.37,2013-03-12 20:54:00,
2013-03-12 16:55:00,52.3,52.3,29.69,NNW,330,9.2,9.2,100,0.00,OVC,,1.30,WeatherDisplay:10.37,2013-03-12 20:55:00,
2013-03-12 16:59:00,52.2,51.3,29.69,NW,309,5.8,5.8,97,0.00,OVC,,1.30,WeatherDisplay:10.37,2013-03-12 20:59:00,
2013-03-12 17:00:00,52.2,51.3,29.69,NNW,338,8.1,8.1,97,0.00,OVC,,1.30,WeatherDisplay:10.37,2013-03-12 21:00:00,
2013-03-12 17:04:00,52.2,51.1,29.72,NW,310,5.8,5.8,96,0.00,OVC,,1.30,WeatherDisplay:10.37,2013-03-12 21:04:00,
2013-03-12 17:05:00,52.2,51.1,29.72,WNW,288,12.7,12.7,96,0.00,OVC,,1.30,WeatherDisplay:10.37,2013-03-12 21:05:00,
2013-03-12 17:09:00,51.8,50.4,29.72,West,281,12.7,12.7,95,0.00,OVC,,1.30,WeatherDisplay:10.37,2013-03-12 21:09:00,
2013-03-12 17:10:00,51.8,50.1,29.72,NW,310,9.2,9.2,94,0.00,OVC,,1.30,WeatherDisplay:10.37,2013-03-12 21:10:00,
2013-03-12 17:14:00,51.8,50.1,29.72,WNW,303,5.8,5.8,94,0.00,OVC,,1.30,WeatherDisplay:10.37,2013-03-12 21:14:00,
2013-03-12 17:15:00,51.8,50.1,29.72,NNW,335,12.7,12.7,94,0.00,OVC,,1.30,WeatherDisplay:10.37,2013-03-12 21:15:00,
2013-03-12 17:16:00,51.8,50.1,29.72,NNW,335,9.2,9.2,94,0.00,OVC,,1.30,WeatherDisplay:10.37,2013-03-12 21:16:00,
2013-03-12 17:17:00,51.6,49.9,29.72,WNW,303,11.5,11.5,94,0.00,OVC,,1.30,WeatherDisplay:10.37,2013-03-12 21:17:00,
2013-03-12 17:19:00,51.4,49.5,29.72,WNW,290,12.7,12.7,93,0.00,OVC,,1.30,WeatherDisplay:10.37,2013-03-12 21:19:00,
2013-03-12 17:20:00,51.4,49.5,29.72,NNW,336,12.7,12.7,93,0.00,OVC,,1.30,WeatherDisplay:10.37,2013-03-12 21:20:00,
2013-03-12 17:21:00,51.4,49.5,29.72,NW,309,12.7,12.7,93,0.00,OVC,,1.30,WeatherDisplay:10.37,2013-03-12 21:21:00,
2013-03-12 17:22:00,51.4,49.5,29.72,NNW,330,9.2,9.2,93,0.00,OVC,,1.30,WeatherDisplay:10.37,2013-03-12 21:22:00,
2013-03-12 17:25:00,51.3,49.0,29.72,NW,317,8.1,8.1,92,0.00,OVC,,1.30,WeatherDisplay:10.37,2013-03-12 21:25:00,
2013-03-12 17:26:00,51.1,48.8,29.72,WNW,294,15.0,15.0,92,0.00,OVC,,1.30,WeatherDisplay:10.37,2013-03-12 21:26:00,
2013-03-12 17:28:00,51.1,48.5,29.72,North,357,12.7,12.7,91,0.00,OVC,,1.30,WeatherDisplay:10.37,2013-03-12 21:28:00,
2013-03-12 17:29:00,50.9,48.4,29.72,NNW,334,15.0,15.0,91,0.00,OVC,,1.30,WeatherDisplay:10.37,2013-03-12 21:29:00,
2013-03-12 17:31:00,50.9,48.1,29.72,NNW,329,8.3,8.3,90,0.00,OVC,,1.30,WeatherDisplay:10.37,2013-03-12 21:31:00,
2013-03-12 17:32:00,50.7,47.9,29.72,NNW,337,8.1,8.1,90,0.00,OVC,,1.30,WeatherDisplay:10.37,2013-03-12 21:32:00,
2013-03-12 17:33:00,50.7,47.9,29.72,NW,308,10.5,10.5,90,0.00,OVC,,1.30,WeatherDisplay:10.37,2013-03-12 21:33:00,
2013-03-12 17:36:00,50.5,47.7,29.72,NW,319,11.5,11.5,90,0.00,OVC,,1.30,WeatherDisplay:10.37,2013-03-12 21:36:00,
2013-03-12 17:37:00,50.4,47.5,29.72,NW,308,10.9,10.9,90,0.00,OVC,,1.30,WeatherDisplay:10.37,2013-03-12 21:37:00,
2013-03-12 17:38:00,50.4,47.5,29.72,NW,319,11.5,11.5,90,0.00,OVC,,1.30,WeatherDisplay:10.37,2013-03-12 21:38:00,
2013-03-12 17:41:00,50.2,47.4,29.72,WNW,299,10.4,10.4,90,0.00,OVC,,1.30,WeatherDisplay:10.37,2013-03-12 21:41:00,
2013-03-12 17:43:00,50.2,47.4,29.72,WNW,300,8.1,8.1,90,0.00,OVC,,1.30,WeatherDisplay:10.37,2013-03-12 21:43:00,
2013-03-12 17:46:00,50.0,46.9,29.72,NNW,335,8.1,8.1,89,0.00,OVC,,1.30,WeatherDisplay:10.37,2013-03-12 21:46:00,
2013-03-12 17:47:00,50.0,46.9,29.72,NW,316,13.2,13.2,89,0.00,OVC,,1.30,WeatherDisplay:10.37,2013-03-12 21:47:00,
2013-03-12 17:48:00,49.8,46.7,29.72,NW,318,12.7,12.7,89,0.00,OVC,,1.30,WeatherDisplay:10.37,2013-03-12 21:48:00,
2013-03-12 17:51:00,49.8,46.7,29.72,WNW,292,8.1,8.1,89,0.00,OVC,,1.30,WeatherDisplay:10.37,2013-03-12 21:51:00,
2013-03-12 17:52:00,49.8,46.7,29.72,NNE,16,12.7,12.7,89,0.00,OVC,,1.30,WeatherDisplay:10.37,2013-03-12 21:52:00,
2013-03-12 17:53:00,49.6,46.5,29.72,WNW,300,9.2,9.2,89,0.00,OVC,,1.30,WeatherDisplay:10.37,2013-03-12 21:53:00,
2013-03-12 17:56:00,49.6,46.2,29.72,WNW,294,8.1,8.1,88,0.00,OVC,,1.30,WeatherDisplay:10.37,2013-03-12 21:56:00,
2013-03-12 17:57:00,49.5,46.1,29.72,NNW,335,8.1,8.1,88,0.00,OVC,,1.30,WeatherDisplay:10.37,2013-03-12 21:57:00,
2013-03-12 17:58:00,49.5,46.1,29.72,NNW,333,8.1,8.1,88,0.00,OVC,,1.30,WeatherDisplay:10.37,2013-03-12 21:58:00,
2013-03-12 18:01:00,49.5,46.1,29.72,North,349,8.1,8.1,88,0.00,OVC,,1.30,WeatherDisplay:10.37,2013-03-12 22:01:00,
2013-03-12 18:02:00,49.3,45.9,29.72,WNW,294,6.9,6.9,88,0.00,OVC,,1.30,WeatherDisplay:10.37,2013-03-12 22:02:00,
2013-03-12 18:03:00,49.3,45.9,29.72,WNW,290,8.1,8.1,88,0.00,OVC,,1.30,WeatherDisplay:10.37,2013-03-12 22:03:00,
2013-03-12 18:06:00,49.3,45.9,29.75,NW,307,8.1,8.1,88,0.00,OVC,,1.30,WeatherDisplay:10.37,2013-03-12 22:06:00,
2013-03-12 18:07:00,49.3,45.9,29.75,NW,313,3.5,4.0,88,0.00,OVC,,1.30,WeatherDisplay:10.37,2013-03-12 22:07:00,
2013-03-12 18:08:00,49.3,45.9,29.75,WNW,303,5.8,5.8,88,0.00,OVC,,1.30,WeatherDisplay:10.37,2013-03-12 22:08:00,
2013-03-12 18:11:00,49.3,46.2,29.75,West,276,8.1,8.1,89,0.00,OVC,,1.30,WeatherDisplay:10.37,2013-03-12 22:11:00,
2013-03-12 18:13:00,49.1,45.7,29.75,WNW,301,9.2,9.2,88,0.00,OVC,,1.30,WeatherDisplay:10.37,2013-03-12 22:13:00,
2013-03-12 18:16:00,48.9,45.5,29.75,NW,314,6.3,6.7,88,0.00,OVC,,1.30,WeatherDisplay:10.37,2013-03-12 22:16:00,
2013-03-12 18:18:00,48.9,45.2,29.75,NW,310,5.8,5.8,87,0.00,OVC,,1.30,WeatherDisplay:10.37,2013-03-12 22:18:00,
2013-03-12 18:23:00,48.7,44.4,29.78,NW,305,10.4,10.4,85,0.00,OVC,,1.30,WeatherDisplay:10.37,2013-03-12 22:23:00,
2013-03-12 18:28:00,48.6,43.6,29.78,WNW,282,5.8,5.8,83,0.00,OVC,,1.30,WeatherDisplay:10.37,2013-03-12 22:28:00,
2013-03-12 18:33:00,48.4,42.8,29.78,NNW,332,3.5,3.5,81,0.00,OVC,,1.30,WeatherDisplay:10.37,2013-03-12 22:33:00,
2013-03-12 18:34:00,48.4,42.8,29.78,NW,310,3.5,0.0,81,0.00,OVC,,1.30,WeatherDisplay:10.37,2013-03-12 22:34:00,
2013-03-12 18:38:00,48.4,42.8,29.78,NNW,333,5.8,5.8,81,0.00,OVC,,1.30,WeatherDisplay:10.37,2013-03-12 22:38:00,
2013-03-12 18:39:00,48.4,42.8,29.78,NNW,339,5.8,5.8,81,0.00,OVC,,1.30,WeatherDisplay:10.37,2013-03-12 22:39:00,
2013-03-12 18:43:00,48.2,42.6,29.78,WNW,294,10.4,10.4,81,0.00,OVC,,1.30,WeatherDisplay:10.37,2013-03-12 22:43:00,
2013-03-12 18:44:00,48.2,42.6,29.78,West,279,10.4,10.4,81,0.00,OVC,,1.30,WeatherDisplay:10.37,2013-03-12 22:44:00,
2013-03-12 18:49:00,48.0,42.5,29.78,NW,308,9.2,9.2,81,0.00,OVC,,1.30,WeatherDisplay:10.37,2013-03-12 22:49:00,
2013-03-12 18:50:00,48.0,42.1,29.78,NW,309,9.2,10.1,80,0.00,OVC,,1.30,WeatherDisplay:10.37,2013-03-12 22:50:00,
2013-03-12 18:54:00,47.8,41.6,29.78,NW,315,4.6,4.6,79,0.00,OVC,,1.30,WeatherDisplay:10.37,2013-03-12 22:54:00,
2013-03-12 18:55:00,47.8,42.0,29.78,WNW,289,8.1,8.1,80,0.00,OVC,,1.30,WeatherDisplay:10.37,2013-03-12 22:55:00,
2013-03-12 18:59:00,47.7,41.5,29.78,NW,305,10.4,10.4,79,0.00,OVC,,1.30,WeatherDisplay:10.37,2013-03-12 22:59:00,
2013-03-12 19:00:00,47.5,41.3,29.78,West,279,10.1,10.1,79,0.00,OVC,,1.30,WeatherDisplay:10.37,2013-03-12 23:00:00,
2013-03-12 19:04:00,47.3,41.1,29.78,NW,316,10.4,10.4,79,0.00,OVC,,1.30,WeatherDisplay:10.37,2013-03-12 23:04:00,
2013-03-12 19:05:00,47.3,41.1,29.78,NW,318,5.8,5.8,79,0.00,OVC,,1.30,WeatherDisplay:10.37,2013-03-12 23:05:00,
2013-03-12 19:09:00,47.1,40.9,29.78,WSW,254,3.6,3.6,79,0.00,OVC,,1.30,WeatherDisplay:10.37,2013-03-12 23:09:00,
2013-03-12 19:10:00,47.1,40.9,29.78,WNW,303,5.8,7.2,79,0.00,OVC,,1.30,WeatherDisplay:10.37,2013-03-12 23:10:00,
2013-03-12 19:14:00,47.1,40.9,29.78,WNW,292,5.8,5.8,79,0.00,OVC,,1.30,WeatherDisplay:10.37,2013-03-12 23:14:00,
2013-03-12 19:15:00,46.9,40.8,29.78,WNW,296,5.8,5.8,79,0.00,OVC,,1.30,WeatherDisplay:10.37,2013-03-12 23:15:00,
2013-03-12 19:19:00,46.9,40.4,29.78,NNW,328,5.8,5.8,78,0.00,OVC,,1.30,WeatherDisplay:10.37,2013-03-12 23:19:00,
2013-03-12 19:20:00,46.9,40.4,29.78,NW,314,5.8,5.8,78,0.00,OVC,,1.30,WeatherDisplay:10.37,2013-03-12 23:20:00,
2013-03-12 19:24:00,46.8,40.6,29.78,WNW,293,4.6,4.6,79,0.00,OVC,,1.30,WeatherDisplay:10.37,2013-03-12 23:24:00,
2013-03-12 19:25:00,46.8,40.3,29.78,WNW,298,3.5,3.5,78,0.00,OVC,,1.30,WeatherDisplay:10.37,2013-03-12 23:25:00,
2013-03-12 19:29:00,46.8,40.3,29.78,NW,308,9.2,9.2,78,0.00,OVC,,1.30,WeatherDisplay:10.37,2013-03-12 23:29:00,
2013-03-12 19:30:00,46.8,40.3,29.78,NNW,338,9.2,9.2,78,0.00,OVC,,1.30,WeatherDisplay:10.37,2013-03-12 23:30:00,
2013-03-12 19:31:00,46.8,40.6,29.78,WNW,282,3.5,0.0,79,0.00,OVC,,1.30,WeatherDisplay:10.37,2013-03-12 23:31:00,
2013-03-12 19:34:00,46.6,40.4,29.81,West,263,5.8,5.8,79,0.00,OVC,,1.30,WeatherDisplay:10.37,2013-03-12 23:34:00,
2013-03-12 19:35:00,46.6,40.4,29.81,West,281,5.8,5.8,79,0.00,OVC,,1.30,WeatherDisplay:10.37,2013-03-12 23:35:00,
2013-03-12 19:36:00,46.6,40.4,29.81,NW,311,4.6,4.6,79,0.00,OVC,,1.30,WeatherDisplay:10.37,2013-03-12 23:36:00,
2013-03-12 19:39:00,46.4,40.2,29.81,WNW,302,3.5,3.5,79,0.00,OVC,,1.30,WeatherDisplay:10.37,2013-03-12 23:39:00,
2013-03-12 19:40:00,46.4,40.2,29.81,NW,317,3.5,3.5,79,0.00,OVC,,1.30,WeatherDisplay:10.37,2013-03-12 23:40:00,
2013-03-12 19:43:00,46.2,40.4,29.81,NW,312,5.8,6.3,80,0.00,OVC,,1.30,WeatherDisplay:10.37,2013-03-12 23:43:00,
2013-03-12 19:44:00,46.2,40.4,29.81,WNW,294,6.9,6.9,80,0.00,OVC,,1.30,WeatherDisplay:10.37,2013-03-12 23:44:00,
2013-03-12 19:45:00,46.2,40.4,29.81,WNW,301,5.8,5.8,80,0.00,OVC,,1.30,WeatherDisplay:10.37,2013-03-12 23:45:00,
2013-03-12 19:48:00,46.2,40.4,29.81,NNW,333,5.8,5.8,80,0.00,OVC,,1.30,WeatherDisplay:10.37,2013-03-12 23:48:00,
2013-03-12 19:49:00,46.0,40.2,29.81,West,260,5.8,5.8,80,0.00,OVC,,1.30,WeatherDisplay:10.37,2013-03-12 23:49:00,
2013-03-12 19:50:00,46.1,40.3,29.81,WNW,293,3.0,8.0,80,0.00,OVC,,1.30,WeatherDisplay:10.37,2013-03-12 23:50:00,
2013-03-12 19:53:00,46.0,40.2,29.81,West,273,3.5,3.5,80,0.00,OVC,,1.30,WeatherDisplay:10.37,2013-03-12 23:53:00,
2013-03-12 19:54:00,46.0,40.2,29.81,WNW,301,2.3,0.0,80,0.00,OVC,,1.30,WeatherDisplay:10.37,2013-03-12 23:54:00,
2013-03-12 19:55:00,46.0,40.2,29.81,NW,304,8.0,8.0,80,0.00,OVC,,1.30,WeatherDisplay:10.37,2013-03-12 23:55:00,
2013-03-12 19:58:00,45.9,40.0,29.81,NW,311,9.2,9.2,80,0.00,OVC,,1.30,WeatherDisplay:10.37,2013-03-12 23:58:00,
2013-03-12 20:00:00,46.0,40.2,29.81,WNW,289,9.2,9.2,80,0.00,OVC,,1.30,WeatherDisplay:10.37,2013-03-13 00:00:00,
2013-03-12 20:03:00,45.9,40.0,29.81,NW,322,5.8,5.8,80,0.00,OVC,,1.30,WeatherDisplay:10.37,2013-03-13 00:03:00,
2013-03-12 20:05:00,45.9,40.0,29.81,WNW,286,5.8,5.8,80,0.00,OVC,,1.30,WeatherDisplay:10.37,2013-03-13 00:05:00,
2013-03-12 20:08:00,46.0,40.2,29.81,NW,321,8.1,8.1,80,0.00,OVC,,1.30,WeatherDisplay:10.37,2013-03-13 00:08:00,
2013-03-12 20:10:00,46.0,39.9,29.81,NW,313,9.2,9.2,79,0.00,OVC,,1.30,WeatherDisplay:10.37,2013-03-13 00:10:00,
2013-03-12 20:13:00,45.9,39.7,29.81,NW,311,3.5,3.5,79,0.00,SCT,,1.30,WeatherDisplay:10.37,2013-03-13 00:13:00,
2013-03-12 20:15:00,45.7,39.5,29.81,NW,326,8.0,8.0,79,0.00,SCT,,1.30,WeatherDisplay:10.37,2013-03-13 00:15:00,
2013-03-12 20:16:00,45.7,39.5,29.81,WNW,298,8.1,8.1,79,0.00,SCT,,1.30,WeatherDisplay:10.37,2013-03-13 00:16:00,
2013-03-12 20:18:00,45.7,39.5,29.81,WNW,290,6.9,6.9,79,0.00,SCT,,1.30,WeatherDisplay:10.37,2013-03-13 00:18:00,
2013-03-12 20:20:00,45.5,39.4,29.81,WNW,294,3.6,0.0,79,0.00,SCT,,1.30,WeatherDisplay:10.37,2013-03-13 00:20:00,
2013-03-12 20:21:00,45.3,39.2,29.81,WNW,295,3.5,3.5,79,0.00,SCT,,1.30,WeatherDisplay:10.37,2013-03-13 00:21:00,
2013-03-12 20:23:00,45.1,39.0,29.81,NW,317,12.7,12.7,79,0.00,SCT,,1.30,WeatherDisplay:10.37,2013-03-13 00:23:00,
2013-03-12 20:25:00,45.1,39.3,29.81,NW,313,9.2,9.2,80,0.00,SCT,,1.30,WeatherDisplay:10.37,2013-03-13 00:25:00,
2013-03-12 20:26:00,45.1,39.0,29.81,WSW,252,8.1,8.1,79,0.00,SCT,,1.30,WeatherDisplay:10.37,2013-03-13 00:26:00,
2013-03-12 20:28:00,45.1,39.0,29.81,NNW,329,8.1,8.1,79,0.00,SCT,,1.30,WeatherDisplay:10.37,2013-03-13 00:28:00,
2013-03-12 20:30:00,45.0,38.8,29.81,NW,315,10.4,10.4,79,0.00,SCT,,1.30,WeatherDisplay:10.37,2013-03-13 00:30:00,
2013-03-12 20:31:00,45.0,38.8,29.81,NNW,332,10.4,10.4,79,0.00,SCT,,1.30,WeatherDisplay:10.37,2013-03-13 00:31:00,
2013-03-12 20:34:00,44.8,38.7,29.81,NW,305,6.7,6.7,79,0.00,SCT,,1.30,WeatherDisplay:10.37,2013-03-13 00:34:00,
2013-03-12 20:35:00,44.8,38.7,29.84,NW,312,6.9,6.9,79,0.00,SCT,,1.30,WeatherDisplay:10.37,2013-03-13 00:35:00,
2013-03-12 20:37:00,44.6,38.5,29.84,WNW,295,4.6,0.0,79,0.00,SCT,,1.30,WeatherDisplay:10.37,2013-03-13 00:37:00,
2013-03-12 20:39:00,44.6,38.5,29.84,WNW,303,9.2,9.2,79,0.00,SCT,,1.30,WeatherDisplay:10.37,2013-03-13 00:39:00,
2013-03-12 20:40:00,44.6,38.2,29.84,WNW,296,6.9,6.9,78,0.00,SCT,,1.30,WeatherDisplay:10.37,2013-03-13 00:40:00,
2013-03-12 20:41:00,44.6,38.2,29.84,WNW,299,6.9,6.9,78,0.00,SCT,,1.30,WeatherDisplay:10.37,2013-03-13 00:41:00,
2013-03-12 20:42:00,44.6,38.2,29.84,NW,322,5.8,5.8,78,0.00,SCT,,1.30,WeatherDisplay:10.37,2013-03-13 00:42:00,
2013-03-12 20:44:00,44.4,38.0,29.84,WNW,292,8.1,8.1,78,0.00,SCT,,1.30,WeatherDisplay:10.37,2013-03-13 00:44:00,
2013-03-12 20:45:00,44.4,38.0,29.84,West,264,5.8,5.8,78,0.00,SCT,,1.30,WeatherDisplay:10.37,2013-03-13 00:45:00,
2013-03-12 20:46:00,44.4,38.0,29.84,WNW,294,3.6,3.6,78,0.00,SCT,,1.30,WeatherDisplay:10.37,2013-03-13 00:46:00,
2013-03-12 20:47:00,44.4,38.0,29.84,WNW,301,5.8,5.8,78,0.00,SCT,,1.30,WeatherDisplay:10.37,2013-03-13 00:47:00,
2013-03-12 20:49:00,44.4,38.0,29.84,WNW,288,8.1,8.1,78,0.00,SCT,,1.30,WeatherDisplay:10.37,2013-03-13 00:49:00,
2013-03-12 20:50:00,44.2,37.8,29.84,WNW,283,6.3,6.3,78,0.00,SCT,,1.30,WeatherDisplay:10.37,2013-03-13 00:50:00,
2013-03-12 20:51:00,44.2,37.8,29.84,WNW,295,5.8,5.8,78,0.00,SCT,,1.30,WeatherDisplay:10.37,2013-03-13 00:51:00,
2013-03-12 20:52:00,44.2,37.8,29.84,NNW,328,5.8,5.8,78,0.00,SCT,,1.30,WeatherDisplay:10.37,2013-03-13 00:52:00,
2013-03-12 20:54:00,44.2,37.8,29.84,NW,317,5.8,5.8,78,0.00,SCT,,1.30,WeatherDisplay:10.37,2013-03-13 00:54:00,
2013-03-12 20:55:00,44.1,37.6,29.84,WNW,302,8.1,8.1,78,0.00,SCT,,1.30,WeatherDisplay:10.37,2013-03-13 00:55:00,
2013-03-12 20:57:00,44.1,37.6,29.84,NNW,346,6.9,6.9,78,0.00,SCT,,1.30,WeatherDisplay:10.37,2013-03-13 00:57:00,
2013-03-12 20:59:00,44.1,37.6,29.84,North,0,7.2,7.2,78,0.00,SCT,,1.30,WeatherDisplay:10.37,2013-03-13 00:59:00,
2013-03-12 21:00:00,43.9,37.5,29.84,NW,316,6.9,6.9,78,0.00,SCT,,1.30,WeatherDisplay:10.37,2013-03-13 01:00:00,
2013-03-12 21:02:00,43.9,37.5,29.84,NW,324,5.8,5.8,78,0.00,SCT,,1.30,WeatherDisplay:10.37,2013-03-13 01:02:00,
2013-03-12 21:03:00,43.9,37.5,29.84,WSW,257,5.8,5.8,78,0.00,SCT,,1.30,WeatherDisplay:10.37,2013-03-13 01:03:00,
2013-03-12 21:04:00,43.9,37.5,29.84,NNW,348,6.9,6.9,78,0.00,SCT,,1.30,WeatherDisplay:10.37,2013-03-13 01:04:00,
2013-03-12 21:06:00,43.7,37.3,29.84,NW,310,4.0,4.0,78,0.00,SCT,,1.30,WeatherDisplay:10.37,2013-03-13 01:06:00,
2013-03-12 21:07:00,43.7,37.3,29.84,WNW,301,5.4,5.4,78,0.00,SCT,,1.30,WeatherDisplay:10.37,2013-03-13 01:07:00,
2013-03-12 21:08:00,43.7,37.3,29.84,WNW,300,5.8,5.8,78,0.00,SCT,,1.30,WeatherDisplay:10.37,2013-03-13 01:08:00,
2013-03-12 21:09:00,43.5,37.1,29.84,North,353,7.6,7.6,78,0.00,SCT,,1.30,WeatherDisplay:10.37,2013-03-13 01:09:00,
2013-03-12 21:11:00,43.5,37.1,29.84,NNW,330,8.1,8.1,78,0.00,SCT,,1.30,WeatherDisplay:10.37,2013-03-13 01:11:00,
2013-03-12 21:12:00,43.5,37.1,29.84,WNW,302,5.8,5.8,78,0.00,BKN,,1.30,WeatherDisplay:10.37,2013-03-13 01:12:00,
2013-03-12 21:13:00,43.5,37.1,29.84,NW,325,6.9,6.9,78,0.00,BKN,,1.30,WeatherDisplay:10.37,2013-03-13 01:13:00,
2013-03-12 21:14:00,43.3,36.9,29.84,NNW,332,8.1,8.1,78,0.00,BKN,,1.30,WeatherDisplay:10.37,2013-03-13 01:14:00,
2013-03-12 21:16:00,43.3,36.9,29.84,WNW,288,6.3,6.3,78,0.00,BKN,,1.30,WeatherDisplay:10.37,2013-03-13 01:16:00,
2013-03-12 21:18:00,43.3,36.9,29.84,NNW,335,6.9,6.9,78,0.00,BKN,,1.30,WeatherDisplay:10.37,2013-03-13 01:18:00,
2013-03-12 21:19:00,43.3,36.6,29.84,NW,320,4.9,4.9,77,0.00,BKN,,1.30,WeatherDisplay:10.37,2013-03-13 01:19:00,
2013-03-12 21:22:00,43.2,36.8,29.84,NW,314,6.3,6.3,78,0.00,BKN,,1.30,WeatherDisplay:10.37,2013-03-13 01:22:00,
2013-03-12 21:23:00,43.2,36.8,29.84,NW,321,5.8,5.8,78,0.00,BKN,,1.30,WeatherDisplay:10.37,2013-03-13 01:23:00,
2013-03-12 21:24:00,43.2,36.8,29.84,WNW,303,4.6,4.6,78,0.00,BKN,,1.30,WeatherDisplay:10.37,2013-03-13 01:24:00,
2013-03-12 21:27:00,43.2,36.8,29.84,NW,316,6.3,6.3,78,0.00,BKN,,1.30,WeatherDisplay:10.37,2013-03-13 01:27:00,
2013-03-12 21:28:00,43.2,36.8,29.84,WNW,293,5.8,5.8,78,0.00,BKN,,1.30,WeatherDisplay:10.37,2013-03-13 01:28:00,
2013-03-12 21:29:00,43.2,36.4,29.84,NW,325,9.2,9.2,77,0.00,BKN,,1.30,WeatherDisplay:10.37,2013-03-13 01:29:00,
2013-03-12 21:30:00,43.2,36.4,29.84,NW,306,9.2,9.2,77,0.00,BKN,,1.30,WeatherDisplay:10.37,2013-03-13 01:30:00,
2013-03-12 21:32:00,43.0,36.3,29.84,WNW,294,5.8,5.8,77,0.00,BKN,,1.30,WeatherDisplay:10.37,2013-03-13 01:32:00,
2013-03-12 21:33:00,43.0,36.3,29.84,NW,319,9.2,9.2,77,0.00,BKN,,1.30,WeatherDisplay:10.37,2013-03-13 01:33:00,
2013-03-12 21:34:00,43.0,36.6,29.84,WNW,293,4.6,4.6,78,0.00,BKN,,1.30,WeatherDisplay:10.37,2013-03-13 01:34:00,
2013-03-12 21:35:00,43.0,36.6,29.84,NW,308,4.6,4.6,78,0.00,BKN,,1.30,WeatherDisplay:10.37,2013-03-13 01:35:00,
2013-03-12 21:37:00,43.0,36.3,29.84,NW,311,5.8,5.8,77,0.00,BKN,,1.30,WeatherDisplay:10.37,2013-03-13 01:37:00,
2013-03-12 21:38:00,43.0,36.3,29.84,NNW,343,5.8,5.8,77,0.00,BKN,,1.30,WeatherDisplay:10.37,2013-03-13 01:38:00,
2013-03-12 21:39:00,43.0,36.3,29.84,WNW,291,8.1,8.1,77,0.00,BKN,,1.30,WeatherDisplay:10.37,2013-03-13 01:39:00,
2013-03-12 21:40:00,43.0,36.3,29.84,WNW,295,8.1,8.1,77,0.00,BKN,,1.30,WeatherDisplay:10.37,2013-03-13 01:40:00,
2013-03-12 21:42:00,43.0,36.3,29.84,WNW,295,8.1,8.1,77,0.00,BKN,,1.30,WeatherDisplay:10.37,2013-03-13 01:42:00,
2013-03-12 21:43:00,43.0,36.3,29.84,NW,324,6.9,6.9,77,0.00,BKN,,1.30,WeatherDisplay:10.37,2013-03-13 01:43:00,
2013-03-12 21:44:00,43.0,36.3,29.84,WNW,295,5.8,5.8,77,0.00,BKN,,1.30,WeatherDisplay:10.37,2013-03-13 01:44:00,
2013-03-12 21:45:00,43.0,36.3,29.84,NW,314,3.5,3.5,77,0.00,BKN,,1.30,WeatherDisplay:10.37,2013-03-13 01:45:00,
2013-03-12 21:48:00,42.8,36.1,29.84,WNW,295,5.8,5.8,77,0.00,BKN,,1.30,WeatherDisplay:10.37,2013-03-13 01:48:00,
2013-03-12 21:49:00,42.8,36.1,29.84,NW,312,5.8,5.8,77,0.00,BKN,,1.30,WeatherDisplay:10.37,2013-03-13 01:49:00,
2013-03-12 21:50:00,42.8,36.1,29.84,NW,307,5.0,6.0,77,0.00,BKN,,1.30,WeatherDisplay:10.37,2013-03-13 01:50:00,
2013-03-12 21:53:00,42.6,35.9,29.84,WNW,302,0.0,0.0,77,0.00,BKN,,1.30,WeatherDisplay:10.37,2013-03-13 01:53:00,
2013-03-12 21:54:00,42.6,35.9,29.84,WNW,301,5.8,5.8,77,0.00,BKN,,1.30,WeatherDisplay:10.37,2013-03-13 01:54:00,
2013-03-12 21:55:00,42.4,35.7,29.84,WNW,303,5.8,5.8,77,0.00,BKN,,1.30,WeatherDisplay:10.37,2013-03-13 01:55:00,
2013-03-12 21:58:00,42.4,35.7,29.84,NNW,333,3.5,3.5,77,0.00,BKN,,1.30,WeatherDisplay:10.37,2013-03-13 01:58:00,
2013-03-12 21:59:00,42.4,35.7,29.84,WNW,301,3.5,0.0,77,0.00,BKN,,1.30,WeatherDisplay:10.37,2013-03-13 01:59:00,
2013-03-12 22:00:00,42.4,35.7,29.84,WNW,286,5.8,5.8,77,0.00,BKN,,1.30,WeatherDisplay:10.37,2013-03-13 02:00:00,
2013-03-12 22:03:00,42.4,35.7,29.84,WNW,302,5.8,5.8,77,0.00,BKN,,1.30,WeatherDisplay:10.37,2013-03-13 02:03:00,
2013-03-12 22:04:00,42.3,35.6,29.84,NW,313,3.5,3.5,77,0.00,BKN,,1.30,WeatherDisplay:10.37,2013-03-13 02:04:00,
2013-03-12 22:05:00,42.3,35.6,29.84,WNW,294,3.5,3.5,77,0.00,BKN,,1.30,WeatherDisplay:10.37,2013-03-13 02:05:00,
2013-03-12 22:08:00,42.3,35.9,29.84,NW,309,3.5,3.5,78,0.00,BKN,,1.30,WeatherDisplay:10.37,2013-03-13 02:08:00,
2013-03-12 22:09:00,42.1,35.7,29.84,WNW,296,2.7,0.0,78,0.00,BKN,,1.30,WeatherDisplay:10.37,2013-03-13 02:09:00,
2013-03-12 22:10:00,42.1,35.7,29.84,WNW,297,2.3,0.0,78,0.00,BKN,,1.30,WeatherDisplay:10.37,2013-03-13 02:10:00,
2013-03-12 22:13:00,41.9,35.5,29.84,NW,310,3.5,3.5,78,0.00,BKN,,1.30,WeatherDisplay:10.37,2013-03-13 02:13:00,
2013-03-12 22:14:00,41.7,35.4,29.84,WNW,297,3.5,3.5,78,0.00,BKN,,1.30,WeatherDisplay:10.37,2013-03-13 02:14:00,
2013-03-12 22:15:00,41.7,35.4,29.84,WNW,291,3.5,3.5,78,0.00,BKN,,1.30,WeatherDisplay:10.37,2013-03-13 02:15:00,
2013-03-12 22:18:00,41.5,35.2,29.84,WNW,282,3.5,4.0,78,0.00,BKN,,1.30,WeatherDisplay:10.37,2013-03-13 02:18:00,
2013-03-12 22:19:00,41.5,35.2,29.84,WNW,282,5.8,5.8,78,0.00,BKN,,1.30,WeatherDisplay:10.37,2013-03-13 02:19:00,
2013-03-12 22:20:00,41.5,35.2,29.84,NW,310,6.9,6.9,78,0.00,BKN,,1.30,WeatherDisplay:10.37,2013-03-13 02:20:00,
2013-03-12 22:24:00,41.5,35.2,29.84,NNW,331,5.8,5.8,78,0.00,BKN,,1.30,WeatherDisplay:10.37,2013-03-13 02:24:00,
2013-03-12 22:25:00,41.5,35.2,29.84,NW,322,3.5,3.5,78,0.00,BKN,,1.30,WeatherDisplay:10.37,2013-03-13 02:25:00,
2013-03-12 22:29:00,41.4,35.0,29.84,WNW,299,5.8,5.8,78,0.00,BKN,,1.30,WeatherDisplay:10.37,2013-03-13 02:29:00,
2013-03-12 22:30:00,41.4,35.0,29.84,NW,308,3.0,6.0,78,0.00,BKN,,1.30,WeatherDisplay:10.37,2013-03-13 02:30:00,
2013-03-12 22:34:00,41.2,34.8,29.84,NW,312,4.6,4.6,78,0.00,BKN,,1.30,WeatherDisplay:10.37,2013-03-13 02:34:00,
2013-03-12 22:35:00,41.0,34.7,29.84,WNW,293,3.5,3.5,78,0.00,BKN,,1.30,WeatherDisplay:10.37,2013-03-13 02:35:00,
2013-03-12 22:36:00,41.0,34.7,29.84,WNW,293,3.5,3.5,78,0.00,BKN,,1.30,WeatherDisplay:10.37,2013-03-13 02:36:00,
2013-03-12 22:39:00,41.0,34.7,29.84,West,265,3.5,0.0,78,0.00,BKN,,1.30,WeatherDisplay:10.37,2013-03-13 02:39:00,
2013-03-12 22:40:00,40.8,34.8,29.84,West,265,3.5,3.5,79,0.00,BKN,,1.30,WeatherDisplay:10.37,2013-03-13 02:40:00,
2013-03-12 22:42:00,40.8,34.8,29.84,NW,319,2.3,0.0,79,0.00,BKN,,1.30,WeatherDisplay:10.37,2013-03-13 02:42:00,
2013-03-12 22:44:00,40.8,34.8,29.84,NW,317,0.0,0.0,79,0.00,BKN,,1.30,WeatherDisplay:10.37,2013-03-13 02:44:00,
2013-03-12 22:45:00,40.8,34.5,29.84,WNW,298,0.0,0.0,78,0.00,BKN,,1.30,WeatherDisplay:10.37,2013-03-13 02:45:00,
2013-03-12 22:47:00,40.6,34.6,29.84,WNW,291,3.5,3.5,79,0.00,BKN,,1.30,WeatherDisplay:10.37,2013-03-13 02:47:00,
2013-03-12 22:49:00,40.5,34.5,29.87,WNW,291,5.8,5.8,79,0.00,BKN,,1.30,WeatherDisplay:10.37,2013-03-13 02:49:00,
2013-03-12 22:50:00,40.5,34.5,29.87,NW,322,3.5,3.5,79,0.00,BKN,,1.30,WeatherDisplay:10.37,2013-03-13 02:50:00,
2013-03-12 22:52:00,40.6,34.6,29.87,WNW,302,5.8,5.8,79,0.00,BKN,,1.30,WeatherDisplay:10.37,2013-03-13 02:52:00,
2013-03-12 22:54:00,40.6,34.6,29.87,WNW,288,3.5,0.0,79,0.00,BKN,,1.30,WeatherDisplay:10.37,2013-03-13 02:54:00,
2013-03-12 22:55:00,40.6,34.6,29.87,West,278,3.6,0.0,79,0.00,BKN,,1.30,WeatherDisplay:10.37,2013-03-13 02:55:00,
2013-03-12 22:58:00,40.6,34.6,29.87,NNW,340,3.5,3.5,79,0.00,BKN,,1.30,WeatherDisplay:10.37,2013-03-13 02:58:00,
2013-03-12 22:59:00,40.5,34.5,29.87,NW,317,3.5,0.0,79,0.00,BKN,,1.30,WeatherDisplay:10.37,2013-03-13 02:59:00,
2013-03-12 23:00:00,40.5,34.5,29.87,NW,317,2.3,0.0,79,0.00,BKN,,1.30,WeatherDisplay:10.37,2013-03-13 03:00:00,
2013-03-12 23:03:00,40.3,34.3,29.87,WNW,297,8.1,8.1,79,0.00,BKN,,1.30,WeatherDisplay:10.37,2013-03-13 03:03:00,
2013-03-12 23:05:00,40.5,34.5,29.87,NW,322,7.6,7.6,79,0.00,BKN,,1.30,WeatherDisplay:10.37,2013-03-13 03:05:00,
2013-03-12 23:06:00,40.5,34.5,29.87,NW,307,8.1,8.1,79,0.00,BKN,,1.30,WeatherDisplay:10.37,2013-03-13 03:06:00,
2013-03-12 23:08:00,40.6,34.6,29.87,NNW,328,8.1,8.1,79,0.00,BKN,,1.30,WeatherDisplay:10.37,2013-03-13 03:08:00,
2013-03-12 23:10:00,40.6,34.3,29.87,WSW,245,3.5,4.0,78,0.00,BKN,,1.30,WeatherDisplay:10.37,2013-03-13 03:10:00,
2013-03-12 23:11:00,40.8,34.5,29.87,WNW,298,4.6,4.6,78,0.00,BKN,,1.30,WeatherDisplay:10.37,2013-03-13 03:11:00,
2013-03-12 23:14:00,40.6,34.0,29.87,NNW,341,8.1,8.1,77,0.00,CLR,,1.30,WeatherDisplay:10.37,2013-03-13 03:14:00,
2013-03-12 23:15:00,40.6,34.0,29.87,NW,311,5.8,5.8,77,0.00,CLR,,1.30,WeatherDisplay:10.37,2013-03-13 03:15:00,
2013-03-12 23:16:00,40.5,33.8,29.87,NNW,331,4.6,4.6,77,0.00,CLR,,1.30,WeatherDisplay:10.37,2013-03-13 03:16:00,
2013-03-12 23:19:00,40.5,33.8,29.87,NNW,329,7.2,7.2,77,0.00,CLR,,1.30,WeatherDisplay:10.37,2013-03-13 03:19:00,
2013-03-12 23:20:00,40.5,33.8,29.87,NW,313,11.5,11.5,77,0.00,CLR,,1.30,WeatherDisplay:10.37,2013-03-13 03:20:00,
2013-03-12 23:22:00,40.6,34.0,29.87,WNW,285,3.5,3.5,77,0.00,CLR,,1.30,WeatherDisplay:10.37,2013-03-13 03:22:00,
2013-03-12 23:24:00,40.6,33.7,29.87,NNW,331,5.8,5.8,76,0.00,CLR,,1.30,WeatherDisplay:10.37,2013-03-13 03:24:00,
2013-03-12 23:25:00,40.6,33.7,29.87,NNW,343,10.4,10.4,76,0.00,CLR,,1.30,WeatherDisplay:10.37,2013-03-13 03:25:00,
2013-03-12 23:27:00,40.6,33.7,29.87,NNW,341,8.1,8.1,76,0.00,CLR,,1.30,WeatherDisplay:10.37,2013-03-13 03:27:00,
2013-03-12 23:29:00,40.6,33.7,29.87,NW,316,8.1,8.1,76,0.00,CLR,,1.30,WeatherDisplay:10.37,2013-03-13 03:29:00,
2013-03-12 23:30:00,40.6,33.7,29.87,WNW,303,5.8,5.8,76,0.00,CLR,,1.30,WeatherDisplay:10.37,2013-03-13 03:30:00,
2013-03-12 23:32:00,40.6,33.3,29.87,WNW,301,10.4,10.4,75,0.00,CLR,,1.30,WeatherDisplay:10.37,2013-03-13 03:32:00,
2013-03-12 23:34:00,40.6,33.3,29.87,WNW,302,8.1,8.1,75,0.00,CLR,,1.30,WeatherDisplay:10.37,2013-03-13 03:34:00,
2013-03-12 23:36:00,40.6,33.3,29.87,NNW,341,5.8,5.8,75,0.00,CLR,,1.30,WeatherDisplay:10.37,2013-03-13 03:36:00,
2013-03-12 23:37:00,40.6,33.3,29.87,NW,309,5.8,5.8,75,0.00,CLR,,1.30,WeatherDisplay:10.37,2013-03-13 03:37:00,
2013-03-12 23:39:00,40.5,33.2,29.87,NW,323,5.8,5.8,75,0.00,CLR,,1.30,WeatherDisplay:10.37,2013-03-13 03:39:00,
2013-03-12 23:41:00,40.5,33.2,29.87,NW,326,8.1,8.1,75,0.00,CLR,,1.30,WeatherDisplay:10.37,2013-03-13 03:41:00,
2013-03-12 23:43:00,40.5,33.2,29.87,NW,325,10.4,10.4,75,0.00,CLR,,1.30,WeatherDisplay:10.37,2013-03-13 03:43:00,
2013-03-12 23:44:00,40.3,33.0,29.87,WNW,293,8.1,8.1,75,0.00,CLR,,1.30,WeatherDisplay:10.37,2013-03-13 03:44:00,
2013-03-12 23:46:00,40.3,33.0,29.87,WNW,282,8.1,8.1,75,0.00,CLR,,1.30,WeatherDisplay:10.37,2013-03-13 03:46:00,
2013-03-12 23:48:00,40.3,33.0,29.87,NW,323,8.3,8.3,75,0.00,CLR,,1.30,WeatherDisplay:10.37,2013-03-13 03:48:00,
2013-03-12 23:49:00,40.3,33.0,29.87,NW,313,9.2,9.2,75,0.00,CLR,,1.30,WeatherDisplay:10.37,2013-03-13 03:49:00,
2013-03-12 23:51:00,40.3,32.6,29.87,NNW,334,9.2,9.2,74,0.00,CLR,,1.30,WeatherDisplay:10.37,2013-03-13 03:51:00,
2013-03-12 23:53:00,40.3,32.6,29.87,North,353,4.6,4.6,74,0.00,CLR,,1.30,WeatherDisplay:10.37,2013-03-13 03:53:00,
2013-03-12 23:55:00,40.3,32.6,29.87,NW,316,5.8,6.3,74,0.00,CLR,,1.30,WeatherDisplay:10.37,2013-03-13 03:55:00,
2013-03-12 23:56:00,40.3,32.6,29.87,NW,312,10.4,10.4,74,0.00,CLR,,1.30,WeatherDisplay:10.37,2013-03-13 03:56:00,
2013-03-12 23:58:00,40.1,32.5,29.87,North,353,6.9,6.9,74,0.00,CLR,,1.30,WeatherDisplay:10.37,2013-03-13 03:58:00,